<?xml version="1.0" encoding="UTF-8" standalone="no" ?>
<gpx xmlns="http://www.topografix.com/GPX/1/1" xmlns:xsi="http://www.w3.org/2001/XMLSchema-instance" xsi:schemaLocation="http://www.topografix.com/GPX/1/1 http://www.topografix.com/GPX/1/1/gpx.xsd" version="1.1" creator="VisuGPX - https://www.visugpx.com">
  <metadata>
    <name>UT53</name>
  </metadata>
  <trk>
    <name><![CDATA[UT53 Étape 5]]></name>
    <extensions>
      <line xmlns="http://www.topografix.com/GPX/gpx_style/0/2">
        <color>FFFF00</color>
        <width>4</width>
      </line>
    </extensions>
    <trkseg>
      <trkpt lat="48.85641" lon="7.31905">
        <ele>350.3338550332</ele>
        <time>2021-07-08T14:48:43.000Z</time>
      </trkpt>
      <trkpt lat="48.85641" lon="7.31905">
        <ele>350.3338550332</ele>
        <time>2021-07-08T14:48:43.000Z</time>
      </trkpt>
      <trkpt lat="48.85638" lon="7.31906">
        <ele>350.94585192545</ele>
        <time>2021-07-08T14:48:43.001Z</time>
      </trkpt>
      <trkpt lat="48.85632" lon="7.3193">
        <ele>351.6719672249</ele>
        <time>2021-07-08T14:48:43.008Z</time>
      </trkpt>
      <trkpt lat="48.85623" lon="7.31936">
        <ele>352.41235572584</ele>
        <time>2021-07-08T14:48:43.018Z</time>
      </trkpt>
      <trkpt lat="48.85604" lon="7.31945">
        <ele>353.18509898853</ele>
        <time>2021-07-08T14:48:43.035Z</time>
      </trkpt>
      <trkpt lat="48.85585" lon="7.31949">
        <ele>354.01426008138</ele>
        <time>2021-07-08T14:48:43.058Z</time>
      </trkpt>
      <trkpt lat="48.85567" lon="7.31945">
        <ele>355.00552368048</ele>
        <time>2021-07-08T14:48:43.087Z</time>
      </trkpt>
      <trkpt lat="48.85551" lon="7.31944">
        <ele>356.07451387382</ele>
        <time>2021-07-08T14:48:43.121Z</time>
      </trkpt>
      <trkpt lat="48.85534" lon="7.31945">
        <ele>357.31865992535</ele>
        <time>2021-07-08T14:48:43.161Z</time>
      </trkpt>
      <trkpt lat="48.85517" lon="7.31947">
        <ele>358.69220732185</ele>
        <time>2021-07-08T14:48:43.207Z</time>
      </trkpt>
      <trkpt lat="48.85489" lon="7.31952">
        <ele>360.35887063181</ele>
        <time>2021-07-08T14:48:43.262Z</time>
      </trkpt>
      <trkpt lat="48.85472" lon="7.31958">
        <ele>361.88420094012</ele>
        <time>2021-07-08T14:48:43.323Z</time>
      </trkpt>
      <trkpt lat="48.8546" lon="7.31961">
        <ele>363.28763079567</ele>
        <time>2021-07-08T14:48:43.388Z</time>
      </trkpt>
      <trkpt lat="48.85449" lon="7.31962">
        <ele>364.62826517438</ele>
        <time>2021-07-08T14:48:43.457Z</time>
      </trkpt>
      <trkpt lat="48.85442" lon="7.31957">
        <ele>365.95085080755</ele>
        <time>2021-07-08T14:48:43.528Z</time>
      </trkpt>
      <trkpt lat="48.85431" lon="7.31934">
        <ele>367.64460215339</ele>
        <time>2021-07-08T14:48:43.606Z</time>
      </trkpt>
      <trkpt lat="48.85412" lon="7.31865">
        <ele>369.73206584659</ele>
        <time>2021-07-08T14:48:43.700Z</time>
      </trkpt>
      <trkpt lat="48.8539" lon="7.31782">
        <ele>371.59560762275</ele>
        <time>2021-07-08T14:48:43.814Z</time>
      </trkpt>
      <trkpt lat="48.85376" lon="7.31733">
        <ele>372.97667892477</ele>
        <time>2021-07-08T14:48:43.939Z</time>
      </trkpt>
      <trkpt lat="48.85358" lon="7.31653">
        <ele>373.95490275373</ele>
        <time>2021-07-08T14:48:44.083Z</time>
      </trkpt>
      <trkpt lat="48.85352" lon="7.31632">
        <ele>374.6911610905</ele>
        <time>2021-07-08T14:48:44.232Z</time>
      </trkpt>
      <trkpt lat="48.85346" lon="7.31611">
        <ele>375.13046502061</ele>
        <time>2021-07-08T14:48:44.386Z</time>
      </trkpt>
      <trkpt lat="48.85334" lon="7.31576">
        <ele>375.28136587709</ele>
        <time>2021-07-08T14:48:44.549Z</time>
      </trkpt>
      <trkpt lat="48.85324" lon="7.31555">
        <ele>375.21863526258</ele>
        <time>2021-07-08T14:48:44.718Z</time>
      </trkpt>
      <trkpt lat="48.85309" lon="7.31532">
        <ele>375.01890717615</ele>
        <time>2021-07-08T14:48:44.894Z</time>
      </trkpt>
      <trkpt lat="48.85281" lon="7.31505">
        <ele>374.80142862448</ele>
        <time>2021-07-08T14:48:45.081Z</time>
      </trkpt>
      <trkpt lat="48.85257" lon="7.31489">
        <ele>374.42853203789</ele>
        <time>2021-07-08T14:48:45.276Z</time>
      </trkpt>
      <trkpt lat="48.85232" lon="7.3147">
        <ele>373.84738179305</ele>
        <time>2021-07-08T14:48:45.481Z</time>
      </trkpt>
      <trkpt lat="48.85206" lon="7.3145">
        <ele>373.16352984688</ele>
        <time>2021-07-08T14:48:45.696Z</time>
      </trkpt>
      <trkpt lat="48.85188" lon="7.3143">
        <ele>372.39034129821</ele>
        <time>2021-07-08T14:48:45.918Z</time>
      </trkpt>
      <trkpt lat="48.85148" lon="7.31407">
        <ele>371.71632222352</ele>
        <time>2021-07-08T14:48:46.154Z</time>
      </trkpt>
      <trkpt lat="48.85127" lon="7.31396">
        <ele>371.09657843219</ele>
        <time>2021-07-08T14:48:46.398Z</time>
      </trkpt>
      <trkpt lat="48.85116" lon="7.31393">
        <ele>370.53799717662</ele>
        <time>2021-07-08T14:48:46.645Z</time>
      </trkpt>
      <trkpt lat="48.85091" lon="7.31388">
        <ele>369.92651581576</ele>
        <time>2021-07-08T14:48:46.901Z</time>
      </trkpt>
      <trkpt lat="48.85063" lon="7.31391">
        <ele>369.32272335806</ele>
        <time>2021-07-08T14:48:47.166Z</time>
      </trkpt>
      <trkpt lat="48.85047" lon="7.31384">
        <ele>368.63955770687</ele>
        <time>2021-07-08T14:48:47.437Z</time>
      </trkpt>
      <trkpt lat="48.85043" lon="7.31375">
        <ele>367.93891660581</ele>
        <time>2021-07-08T14:48:47.710Z</time>
      </trkpt>
      <trkpt lat="48.85033" lon="7.31368">
        <ele>367.21469165645</ele>
        <time>2021-07-08T14:48:47.987Z</time>
      </trkpt>
      <trkpt lat="48.85022" lon="7.31361">
        <ele>366.45491286222</ele>
        <time>2021-07-08T14:48:48.268Z</time>
      </trkpt>
      <trkpt lat="48.84971" lon="7.31357">
        <ele>366.07873446088</ele>
        <time>2021-07-08T14:48:48.566Z</time>
      </trkpt>
      <trkpt lat="48.84931" lon="7.31346">
        <ele>365.37956693401</ele>
        <time>2021-07-08T14:48:48.877Z</time>
      </trkpt>
      <trkpt lat="48.84915" lon="7.31331">
        <ele>364.65579118917</ele>
        <time>2021-07-08T14:48:49.195Z</time>
      </trkpt>
      <trkpt lat="48.84879" lon="7.31303">
        <ele>363.74363584397</ele>
        <time>2021-07-08T14:48:49.526Z</time>
      </trkpt>
      <trkpt lat="48.84856" lon="7.31289">
        <ele>362.74872963865</ele>
        <time>2021-07-08T14:48:49.865Z</time>
      </trkpt>
      <trkpt lat="48.84834" lon="7.31273">
        <ele>361.46313685356</ele>
        <time>2021-07-08T14:48:50.213Z</time>
      </trkpt>
      <trkpt lat="48.84816" lon="7.31265">
        <ele>360.05982713302</ele>
        <time>2021-07-08T14:48:50.567Z</time>
      </trkpt>
      <trkpt lat="48.84807" lon="7.31251">
        <ele>358.45887152605</ele>
        <time>2021-07-08T14:48:50.925Z</time>
      </trkpt>
      <trkpt lat="48.84799" lon="7.31235">
        <ele>356.65530827245</ele>
        <time>2021-07-08T14:48:51.288Z</time>
      </trkpt>
      <trkpt lat="48.84815" lon="7.31225">
        <ele>354.75445157322</ele>
        <time>2021-07-08T14:48:51.656Z</time>
      </trkpt>
      <trkpt lat="48.84817" lon="7.31217">
        <ele>352.64410561698</ele>
        <time>2021-07-08T14:48:52.026Z</time>
      </trkpt>
      <trkpt lat="48.84812" lon="7.3121">
        <ele>350.32522971276</ele>
        <time>2021-07-08T14:48:52.398Z</time>
      </trkpt>
      <trkpt lat="48.84798" lon="7.31211">
        <ele>347.83440131339</ele>
        <time>2021-07-08T14:48:52.775Z</time>
      </trkpt>
      <trkpt lat="48.84774" lon="7.31214">
        <ele>345.13288970684</ele>
        <time>2021-07-08T14:48:53.160Z</time>
      </trkpt>
      <trkpt lat="48.84752" lon="7.31224">
        <ele>341.91000658649</ele>
        <time>2021-07-08T14:48:53.553Z</time>
      </trkpt>
      <trkpt lat="48.84728" lon="7.31243">
        <ele>338.23830420657</ele>
        <time>2021-07-08T14:48:53.955Z</time>
      </trkpt>
      <trkpt lat="48.84718" lon="7.31254">
        <ele>334.63881970108</ele>
        <time>2021-07-08T14:48:54.361Z</time>
      </trkpt>
      <trkpt lat="48.84707" lon="7.31257">
        <ele>330.83451167534</ele>
        <time>2021-07-08T14:48:54.771Z</time>
      </trkpt>
      <trkpt lat="48.84701" lon="7.31247">
        <ele>326.99976029717</ele>
        <time>2021-07-08T14:48:55.184Z</time>
      </trkpt>
      <trkpt lat="48.84697" lon="7.31235">
        <ele>323.0782013853</ele>
        <time>2021-07-08T14:48:55.600Z</time>
      </trkpt>
      <trkpt lat="48.84695" lon="7.31223">
        <ele>319.11110030945</ele>
        <time>2021-07-08T14:48:56.018Z</time>
      </trkpt>
      <trkpt lat="48.84693" lon="7.3122">
        <ele>315.08730195669</ele>
        <time>2021-07-08T14:48:56.437Z</time>
      </trkpt>
      <trkpt lat="48.84679" lon="7.31254">
        <ele>310.6890848455</ele>
        <time>2021-07-08T14:48:56.865Z</time>
      </trkpt>
      <trkpt lat="48.84674" lon="7.31222">
        <ele>306.50912875276</ele>
        <time>2021-07-08T14:48:57.300Z</time>
      </trkpt>
      <trkpt lat="48.84655" lon="7.31252">
        <ele>301.82643518869</ele>
        <time>2021-07-08T14:48:57.745Z</time>
      </trkpt>
      <trkpt lat="48.8464" lon="7.3125">
        <ele>297.2765469061</ele>
        <time>2021-07-08T14:48:58.195Z</time>
      </trkpt>
      <trkpt lat="48.84612" lon="7.31284">
        <ele>292.21511484647</ele>
        <time>2021-07-08T14:48:58.657Z</time>
      </trkpt>
      <trkpt lat="48.84592" lon="7.31324">
        <ele>287.51721311336</ele>
        <time>2021-07-08T14:48:59.130Z</time>
      </trkpt>
      <trkpt lat="48.84606" lon="7.31371">
        <ele>283.41227364144</ele>
        <time>2021-07-08T14:48:59.614Z</time>
      </trkpt>
      <trkpt lat="48.84602" lon="7.31407">
        <ele>279.24254795466</ele>
        <time>2021-07-08T14:49:00.106Z</time>
      </trkpt>
      <trkpt lat="48.84605" lon="7.31435">
        <ele>275.41486793465</ele>
        <time>2021-07-08T14:49:00.604Z</time>
      </trkpt>
      <trkpt lat="48.84608" lon="7.31457">
        <ele>271.8248725955</ele>
        <time>2021-07-08T14:49:01.107Z</time>
      </trkpt>
      <trkpt lat="48.84598" lon="7.31459">
        <ele>268.36986943099</ele>
        <time>2021-07-08T14:49:01.614Z</time>
      </trkpt>
      <trkpt lat="48.84605" lon="7.31496">
        <ele>265.13965439393</ele>
        <time>2021-07-08T14:49:02.129Z</time>
      </trkpt>
      <trkpt lat="48.84603" lon="7.31507">
        <ele>262.15873894306</ele>
        <time>2021-07-08T14:49:02.647Z</time>
      </trkpt>
      <trkpt lat="48.84608" lon="7.31517">
        <ele>259.47872116147</ele>
        <time>2021-07-08T14:49:03.167Z</time>
      </trkpt>
      <trkpt lat="48.84615" lon="7.31538">
        <ele>256.93546294848</ele>
        <time>2021-07-08T14:49:03.692Z</time>
      </trkpt>
      <trkpt lat="48.84602" lon="7.31527">
        <ele>254.53181881391</ele>
        <time>2021-07-08T14:49:04.222Z</time>
      </trkpt>
      <trkpt lat="48.8459" lon="7.31514">
        <ele>252.27047310742</ele>
        <time>2021-07-08T14:49:04.757Z</time>
      </trkpt>
      <trkpt lat="48.84597" lon="7.31533">
        <ele>250.24224296612</ele>
        <time>2021-07-08T14:49:05.297Z</time>
      </trkpt>
      <trkpt lat="48.84603" lon="7.31558">
        <ele>248.29377896698</ele>
        <time>2021-07-08T14:49:05.843Z</time>
      </trkpt>
      <trkpt lat="48.84575" lon="7.3153">
        <ele>246.26418140327</ele>
        <time>2021-07-08T14:49:06.400Z</time>
      </trkpt>
      <trkpt lat="48.84585" lon="7.31554">
        <ele>244.57313422245</ele>
        <time>2021-07-08T14:49:06.963Z</time>
      </trkpt>
      <trkpt lat="48.84592" lon="7.3157">
        <ele>242.97259883671</ele>
        <time>2021-07-08T14:49:07.531Z</time>
      </trkpt>
      <trkpt lat="48.84573" lon="7.31559">
        <ele>241.21949757515</ele>
        <time>2021-07-08T14:49:08.105Z</time>
      </trkpt>
      <trkpt lat="48.84562" lon="7.31548">
        <ele>239.63107856834</ele>
        <time>2021-07-08T14:49:08.684Z</time>
      </trkpt>
      <trkpt lat="48.84558" lon="7.31547">
        <ele>238.13286124049</ele>
        <time>2021-07-08T14:49:09.264Z</time>
      </trkpt>
      <trkpt lat="48.84554" lon="7.31552">
        <ele>236.63964524162</ele>
        <time>2021-07-08T14:49:09.846Z</time>
      </trkpt>
      <trkpt lat="48.84595" lon="7.31619">
        <ele>235.24689451387</ele>
        <time>2021-07-08T14:49:10.448Z</time>
      </trkpt>
      <trkpt lat="48.84612" lon="7.31651">
        <ele>233.74974062919</ele>
        <time>2021-07-08T14:49:11.059Z</time>
      </trkpt>
      <trkpt lat="48.84629" lon="7.31693">
        <ele>232.18583642849</ele>
        <time>2021-07-08T14:49:11.681Z</time>
      </trkpt>
      <trkpt lat="48.84642" lon="7.31734">
        <ele>230.68254154589</ele>
        <time>2021-07-08T14:49:12.313Z</time>
      </trkpt>
      <trkpt lat="48.84644" lon="7.31746">
        <ele>229.32483075929</ele>
        <time>2021-07-08T14:49:12.948Z</time>
      </trkpt>
      <trkpt lat="48.84645" lon="7.3176">
        <ele>227.928804044</ele>
        <time>2021-07-08T14:49:13.586Z</time>
      </trkpt>
      <trkpt lat="48.84635" lon="7.31755">
        <ele>226.6789464507</ele>
        <time>2021-07-08T14:49:14.227Z</time>
      </trkpt>
      <trkpt lat="48.84633" lon="7.31768">
        <ele>225.33624252454</ele>
        <time>2021-07-08T14:49:14.871Z</time>
      </trkpt>
      <trkpt lat="48.84618" lon="7.31767">
        <ele>224.13454493463</ele>
        <time>2021-07-08T14:49:15.520Z</time>
      </trkpt>
      <trkpt lat="48.84572" lon="7.31774">
        <ele>222.87309277719</ele>
        <time>2021-07-08T14:49:16.185Z</time>
      </trkpt>
      <trkpt lat="48.84543" lon="7.31781">
        <ele>221.77864598389</ele>
        <time>2021-07-08T14:49:16.860Z</time>
      </trkpt>
      <trkpt lat="48.84516" lon="7.31777">
        <ele>220.84279249979</ele>
        <time>2021-07-08T14:49:17.544Z</time>
      </trkpt>
      <trkpt lat="48.8448" lon="7.31759">
        <ele>219.90452286876</ele>
        <time>2021-07-08T14:49:18.240Z</time>
      </trkpt>
      <trkpt lat="48.84455" lon="7.3174">
        <ele>218.99038493733</ele>
        <time>2021-07-08T14:49:18.946Z</time>
      </trkpt>
      <trkpt lat="48.84435" lon="7.31725">
        <ele>218.12567427983</ele>
        <time>2021-07-08T14:49:19.659Z</time>
      </trkpt>
      <trkpt lat="48.84408" lon="7.31693">
        <ele>217.23090847058</ele>
        <time>2021-07-08T14:49:20.383Z</time>
      </trkpt>
      <trkpt lat="48.84387" lon="7.31669">
        <ele>216.42880755978</ele>
        <time>2021-07-08T14:49:21.116Z</time>
      </trkpt>
      <trkpt lat="48.8437" lon="7.31644">
        <ele>215.70372491245</ele>
        <time>2021-07-08T14:49:21.857Z</time>
      </trkpt>
      <trkpt lat="48.84358" lon="7.31638">
        <ele>215.12337108515</ele>
        <time>2021-07-08T14:49:22.602Z</time>
      </trkpt>
      <trkpt lat="48.84349" lon="7.31633">
        <ele>214.62910507483</ele>
        <time>2021-07-08T14:49:23.351Z</time>
      </trkpt>
      <trkpt lat="48.84348" lon="7.31621">
        <ele>214.19398831782</ele>
        <time>2021-07-08T14:49:24.102Z</time>
      </trkpt>
      <trkpt lat="48.84344" lon="7.31599">
        <ele>213.81956601886</ele>
        <time>2021-07-08T14:49:24.858Z</time>
      </trkpt>
      <trkpt lat="48.84338" lon="7.31581">
        <ele>213.559613421</ele>
        <time>2021-07-08T14:49:25.619Z</time>
      </trkpt>
      <trkpt lat="48.84334" lon="7.31558">
        <ele>213.40303728575</ele>
        <time>2021-07-08T14:49:26.385Z</time>
      </trkpt>
      <trkpt lat="48.84322" lon="7.31531">
        <ele>213.40216960078</ele>
        <time>2021-07-08T14:49:27.158Z</time>
      </trkpt>
      <trkpt lat="48.84313" lon="7.31514">
        <ele>213.51701878076</ele>
        <time>2021-07-08T14:49:27.936Z</time>
      </trkpt>
      <trkpt lat="48.84307" lon="7.31484">
        <ele>213.82066148256</ele>
        <time>2021-07-08T14:49:28.721Z</time>
      </trkpt>
      <trkpt lat="48.84301" lon="7.31471">
        <ele>214.23082943253</ele>
        <time>2021-07-08T14:49:29.509Z</time>
      </trkpt>
      <trkpt lat="48.84309" lon="7.31459">
        <ele>214.79207629359</ele>
        <time>2021-07-08T14:49:30.301Z</time>
      </trkpt>
      <trkpt lat="48.8431" lon="7.31442">
        <ele>215.47304474894</ele>
        <time>2021-07-08T14:49:31.097Z</time>
      </trkpt>
      <trkpt lat="48.8431" lon="7.31429">
        <ele>216.24284392201</ele>
        <time>2021-07-08T14:49:31.896Z</time>
      </trkpt>
      <trkpt lat="48.84306" lon="7.31414">
        <ele>217.11830582105</ele>
        <time>2021-07-08T14:49:32.698Z</time>
      </trkpt>
      <trkpt lat="48.84305" lon="7.31412">
        <ele>218.04589994535</ele>
        <time>2021-07-08T14:49:33.501Z</time>
      </trkpt>
      <trkpt lat="48.84302" lon="7.31408">
        <ele>219.0831016066</ele>
        <time>2021-07-08T14:49:34.305Z</time>
      </trkpt>
      <trkpt lat="48.84294" lon="7.31392">
        <ele>220.29421506519</ele>
        <time>2021-07-08T14:49:35.113Z</time>
      </trkpt>
      <trkpt lat="48.84275" lon="7.31364">
        <ele>221.65914252068</ele>
        <time>2021-07-08T14:49:35.930Z</time>
      </trkpt>
      <trkpt lat="48.84259" lon="7.31348">
        <ele>222.9707727254</ele>
        <time>2021-07-08T14:49:36.754Z</time>
      </trkpt>
      <trkpt lat="48.84236" lon="7.31326">
        <ele>224.35119107708</ele>
        <time>2021-07-08T14:49:37.587Z</time>
      </trkpt>
      <trkpt lat="48.84208" lon="7.31288">
        <ele>225.91875057571</ele>
        <time>2021-07-08T14:49:38.432Z</time>
      </trkpt>
      <trkpt lat="48.84183" lon="7.31251">
        <ele>227.55835338835</ele>
        <time>2021-07-08T14:49:39.289Z</time>
      </trkpt>
      <trkpt lat="48.84177" lon="7.31243">
        <ele>229.16485807684</ele>
        <time>2021-07-08T14:49:40.149Z</time>
      </trkpt>
      <trkpt lat="48.84151" lon="7.31203">
        <ele>231.02676738676</ele>
        <time>2021-07-08T14:49:41.021Z</time>
      </trkpt>
      <trkpt lat="48.84135" lon="7.31185">
        <ele>232.78525444738</ele>
        <time>2021-07-08T14:49:41.900Z</time>
      </trkpt>
      <trkpt lat="48.84116" lon="7.31167">
        <ele>234.56141478073</ele>
        <time>2021-07-08T14:49:42.786Z</time>
      </trkpt>
      <trkpt lat="48.84081" lon="7.31133">
        <ele>236.53652779528</ele>
        <time>2021-07-08T14:49:43.686Z</time>
      </trkpt>
      <trkpt lat="48.84031" lon="7.3107">
        <ele>238.85547001498</ele>
        <time>2021-07-08T14:49:44.608Z</time>
      </trkpt>
      <trkpt lat="48.8403" lon="7.31067">
        <ele>240.75327486212</ele>
        <time>2021-07-08T14:49:45.530Z</time>
      </trkpt>
      <trkpt lat="48.84025" lon="7.31056">
        <ele>242.73453691909</ele>
        <time>2021-07-08T14:49:46.455Z</time>
      </trkpt>
      <trkpt lat="48.84022" lon="7.31043">
        <ele>244.77672276316</ele>
        <time>2021-07-08T14:49:47.383Z</time>
      </trkpt>
      <trkpt lat="48.84022" lon="7.31028">
        <ele>246.88305459191</ele>
        <time>2021-07-08T14:49:48.315Z</time>
      </trkpt>
      <trkpt lat="48.84026" lon="7.30984">
        <ele>249.33637844812</ele>
        <time>2021-07-08T14:49:49.257Z</time>
      </trkpt>
      <trkpt lat="48.84024" lon="7.30964">
        <ele>251.54076496077</ele>
        <time>2021-07-08T14:49:50.203Z</time>
      </trkpt>
      <trkpt lat="48.84016" lon="7.30951">
        <ele>253.69442765174</ele>
        <time>2021-07-08T14:49:51.153Z</time>
      </trkpt>
      <trkpt lat="48.84007" lon="7.30946">
        <ele>255.82039367352</ele>
        <time>2021-07-08T14:49:52.106Z</time>
      </trkpt>
      <trkpt lat="48.83982" lon="7.30946">
        <ele>257.89934139614</ele>
        <time>2021-07-08T14:49:53.067Z</time>
      </trkpt>
      <trkpt lat="48.8395" lon="7.30948">
        <ele>260.07271225474</ele>
        <time>2021-07-08T14:49:54.039Z</time>
      </trkpt>
      <trkpt lat="48.83946" lon="7.30946">
        <ele>262.41368769968</ele>
        <time>2021-07-08T14:49:55.013Z</time>
      </trkpt>
      <trkpt lat="48.83938" lon="7.30942">
        <ele>264.87540826353</ele>
        <time>2021-07-08T14:49:55.989Z</time>
      </trkpt>
      <trkpt lat="48.83926" lon="7.30933">
        <ele>267.49499677003</ele>
        <time>2021-07-08T14:49:56.970Z</time>
      </trkpt>
      <trkpt lat="48.83912" lon="7.30914">
        <ele>270.32311713089</ele>
        <time>2021-07-08T14:49:57.957Z</time>
      </trkpt>
      <trkpt lat="48.83899" lon="7.30893">
        <ele>273.29021080278</ele>
        <time>2021-07-08T14:49:58.950Z</time>
      </trkpt>
      <trkpt lat="48.83884" lon="7.3087">
        <ele>276.42796426963</ele>
        <time>2021-07-08T14:49:59.951Z</time>
      </trkpt>
      <trkpt lat="48.83883" lon="7.30867">
        <ele>279.6327794163</ele>
        <time>2021-07-08T14:50:00.952Z</time>
      </trkpt>
      <trkpt lat="48.83875" lon="7.3084">
        <ele>283.20229877255</ele>
        <time>2021-07-08T14:50:01.960Z</time>
      </trkpt>
      <trkpt lat="48.83856" lon="7.30738">
        <ele>287.10288897758</ele>
        <time>2021-07-08T14:50:02.991Z</time>
      </trkpt>
      <trkpt lat="48.83855" lon="7.30694">
        <ele>290.99382586333</ele>
        <time>2021-07-08T14:50:04.032Z</time>
      </trkpt>
      <trkpt lat="48.83852" lon="7.30593">
        <ele>295.16550448363</ele>
        <time>2021-07-08T14:50:05.095Z</time>
      </trkpt>
      <trkpt lat="48.83852" lon="7.30509">
        <ele>299.34754307598</ele>
        <time>2021-07-08T14:50:06.177Z</time>
      </trkpt>
      <trkpt lat="48.83863" lon="7.3037">
        <ele>303.83741352402</ele>
        <time>2021-07-08T14:50:07.289Z</time>
      </trkpt>
      <trkpt lat="48.83886" lon="7.30122">
        <ele>308.20107583338</ele>
        <time>2021-07-08T14:50:08.456Z</time>
      </trkpt>
      <trkpt lat="48.83886" lon="7.30123">
        <ele>321.32452506381</ele>
        <time>2021-07-08T14:50:09.624Z</time>
      </trkpt>
      <trkpt lat="48.83892" lon="7.30059">
        <ele>325.86547418237</ele>
        <time>2021-07-08T14:50:10.806Z</time>
      </trkpt>
      <trkpt lat="48.83894" lon="7.30005">
        <ele>330.71918111954</ele>
        <time>2021-07-08T14:50:12.000Z</time>
      </trkpt>
      <trkpt lat="48.83889" lon="7.2996">
        <ele>335.69687999557</ele>
        <time>2021-07-08T14:50:13.204Z</time>
      </trkpt>
      <trkpt lat="48.83872" lon="7.29912">
        <ele>340.33541618859</ele>
        <time>2021-07-08T14:50:14.420Z</time>
      </trkpt>
      <trkpt lat="48.83847" lon="7.29872">
        <ele>345.02879287355</ele>
        <time>2021-07-08T14:50:15.648Z</time>
      </trkpt>
      <trkpt lat="48.83822" lon="7.29853">
        <ele>349.47622363696</ele>
        <time>2021-07-08T14:50:16.885Z</time>
      </trkpt>
      <trkpt lat="48.83771" lon="7.29835">
        <ele>353.82320197196</ele>
        <time>2021-07-08T14:50:18.140Z</time>
      </trkpt>
      <trkpt lat="48.83764" lon="7.29832">
        <ele>357.4016259785</ele>
        <time>2021-07-08T14:50:19.397Z</time>
      </trkpt>
      <trkpt lat="48.8373" lon="7.29819">
        <ele>360.88430508432</ele>
        <time>2021-07-08T14:50:20.666Z</time>
      </trkpt>
      <trkpt lat="48.83624" lon="7.29814">
        <ele>364.08063350366</ele>
        <time>2021-07-08T14:50:21.970Z</time>
      </trkpt>
      <trkpt lat="48.83568" lon="7.29803">
        <ele>366.40457618299</ele>
        <time>2021-07-08T14:50:23.293Z</time>
      </trkpt>
      <trkpt lat="48.83571" lon="7.29797">
        <ele>368.45321382817</ele>
        <time>2021-07-08T14:50:24.618Z</time>
      </trkpt>
      <trkpt lat="48.8359" lon="7.29759">
        <ele>370.46714735615</ele>
        <time>2021-07-08T14:50:25.953Z</time>
      </trkpt>
      <trkpt lat="48.83602" lon="7.29735">
        <ele>371.88644259498</ele>
        <time>2021-07-08T14:50:27.295Z</time>
      </trkpt>
      <trkpt lat="48.83589" lon="7.2973">
        <ele>372.53384446637</ele>
        <time>2021-07-08T14:50:28.641Z</time>
      </trkpt>
      <trkpt lat="48.83563" lon="7.29721">
        <ele>372.6838543293</ele>
        <time>2021-07-08T14:50:29.996Z</time>
      </trkpt>
      <trkpt lat="48.83544" lon="7.29709">
        <ele>372.47565524668</ele>
        <time>2021-07-08T14:50:31.358Z</time>
      </trkpt>
      <trkpt lat="48.83525" lon="7.29681">
        <ele>371.91014885988</ele>
        <time>2021-07-08T14:50:32.729Z</time>
      </trkpt>
      <trkpt lat="48.83487" lon="7.29601">
        <ele>370.7155642486</ele>
        <time>2021-07-08T14:50:34.122Z</time>
      </trkpt>
      <trkpt lat="48.83473" lon="7.29579">
        <ele>369.34929833778</ele>
        <time>2021-07-08T14:50:35.521Z</time>
      </trkpt>
      <trkpt lat="48.83454" lon="7.29557">
        <ele>367.62365917378</ele>
        <time>2021-07-08T14:50:36.928Z</time>
      </trkpt>
      <trkpt lat="48.83397" lon="7.29497">
        <ele>365.39118834879</ele>
        <time>2021-07-08T14:50:38.359Z</time>
      </trkpt>
      <trkpt lat="48.83366" lon="7.29427">
        <ele>363.12401110758</ele>
        <time>2021-07-08T14:50:39.808Z</time>
      </trkpt>
      <trkpt lat="48.83365" lon="7.29426">
        <ele>360.82315229581</ele>
        <time>2021-07-08T14:50:41.258Z</time>
      </trkpt>
      <trkpt lat="48.83304" lon="7.29266">
        <ele>357.83750102752</ele>
        <time>2021-07-08T14:50:42.748Z</time>
      </trkpt>
      <trkpt lat="48.83267" lon="7.29175">
        <ele>354.92864376434</ele>
        <time>2021-07-08T14:50:44.262Z</time>
      </trkpt>
      <trkpt lat="48.83246" lon="7.29123">
        <ele>352.09209275697</ele>
        <time>2021-07-08T14:50:45.789Z</time>
      </trkpt>
      <trkpt lat="48.8322" lon="7.29064">
        <ele>349.11117744399</ele>
        <time>2021-07-08T14:50:47.332Z</time>
      </trkpt>
      <trkpt lat="48.83216" lon="7.29054">
        <ele>346.18690773234</ele>
        <time>2021-07-08T14:50:48.877Z</time>
      </trkpt>
      <trkpt lat="48.8321" lon="7.29045">
        <ele>343.21970958851</ele>
        <time>2021-07-08T14:50:50.425Z</time>
      </trkpt>
      <trkpt lat="48.83198" lon="7.29045">
        <ele>340.24111601448</ele>
        <time>2021-07-08T14:50:51.977Z</time>
      </trkpt>
      <trkpt lat="48.83176" lon="7.29056">
        <ele>337.39589773255</ele>
        <time>2021-07-08T14:50:53.537Z</time>
      </trkpt>
      <trkpt lat="48.83162" lon="7.29057">
        <ele>334.53829260037</ele>
        <time>2021-07-08T14:50:55.102Z</time>
      </trkpt>
      <trkpt lat="48.83155" lon="7.29042">
        <ele>331.58835936683</ele>
        <time>2021-07-08T14:50:56.671Z</time>
      </trkpt>
      <trkpt lat="48.83119" lon="7.28907">
        <ele>328.08384911532</ele>
        <time>2021-07-08T14:50:58.272Z</time>
      </trkpt>
      <trkpt lat="48.83119" lon="7.28861">
        <ele>324.934533205</ele>
        <time>2021-07-08T14:50:59.883Z</time>
      </trkpt>
      <trkpt lat="48.83116" lon="7.2878">
        <ele>321.58306270484</ele>
        <time>2021-07-08T14:51:01.512Z</time>
      </trkpt>
      <trkpt lat="48.83114" lon="7.28769">
        <ele>318.64381296617</ele>
        <time>2021-07-08T14:51:03.143Z</time>
      </trkpt>
      <trkpt lat="48.83112" lon="7.2876">
        <ele>315.74339838395</ele>
        <time>2021-07-08T14:51:04.776Z</time>
      </trkpt>
      <trkpt lat="48.83109" lon="7.2875">
        <ele>312.86210442997</ele>
        <time>2021-07-08T14:51:06.412Z</time>
      </trkpt>
      <trkpt lat="48.83107" lon="7.28741">
        <ele>309.99357844031</ele>
        <time>2021-07-08T14:51:08.050Z</time>
      </trkpt>
      <trkpt lat="48.83104" lon="7.28732">
        <ele>307.14361798939</ele>
        <time>2021-07-08T14:51:09.690Z</time>
      </trkpt>
      <trkpt lat="48.83101" lon="7.28724">
        <ele>304.30855946161</ele>
        <time>2021-07-08T14:51:11.332Z</time>
      </trkpt>
      <trkpt lat="48.83097" lon="7.28717">
        <ele>301.47556264216</ele>
        <time>2021-07-08T14:51:12.976Z</time>
      </trkpt>
      <trkpt lat="48.83094" lon="7.28709">
        <ele>298.59186718011</ele>
        <time>2021-07-08T14:51:14.622Z</time>
      </trkpt>
      <trkpt lat="48.83089" lon="7.28699">
        <ele>295.68129525734</ele>
        <time>2021-07-08T14:51:16.271Z</time>
      </trkpt>
      <trkpt lat="48.83086" lon="7.28692">
        <ele>292.71466859482</ele>
        <time>2021-07-08T14:51:17.922Z</time>
      </trkpt>
      <trkpt lat="48.83081" lon="7.28684">
        <ele>289.71342451613</ele>
        <time>2021-07-08T14:51:19.575Z</time>
      </trkpt>
      <trkpt lat="48.83071" lon="7.28638">
        <ele>286.42831939911</ele>
        <time>2021-07-08T14:51:21.239Z</time>
      </trkpt>
      <trkpt lat="48.83037" lon="7.28529">
        <ele>282.68396502354</ele>
        <time>2021-07-08T14:51:22.929Z</time>
      </trkpt>
      <trkpt lat="48.83017" lon="7.28471">
        <ele>279.06039961246</ele>
        <time>2021-07-08T14:51:24.634Z</time>
      </trkpt>
      <trkpt lat="48.82986" lon="7.28399">
        <ele>275.42800241381</ele>
        <time>2021-07-08T14:51:26.358Z</time>
      </trkpt>
      <trkpt lat="48.82986" lon="7.28397">
        <ele>272.20273540381</ele>
        <time>2021-07-08T14:51:28.082Z</time>
      </trkpt>
      <trkpt lat="48.82983" lon="7.28377">
        <ele>268.79935685556</ele>
        <time>2021-07-08T14:51:29.811Z</time>
      </trkpt>
      <trkpt lat="48.8297" lon="7.2835">
        <ele>265.51017514191</ele>
        <time>2021-07-08T14:51:31.547Z</time>
      </trkpt>
      <trkpt lat="48.82952" lon="7.28319">
        <ele>262.27517360698</ele>
        <time>2021-07-08T14:51:33.292Z</time>
      </trkpt>
      <trkpt lat="48.82917" lon="7.28265">
        <ele>259.08925786877</ele>
        <time>2021-07-08T14:51:35.054Z</time>
      </trkpt>
      <trkpt lat="48.82877" lon="7.28193">
        <ele>255.58428029436</ele>
        <time>2021-07-08T14:51:36.837Z</time>
      </trkpt>
      <trkpt lat="48.82861" lon="7.28154">
        <ele>252.21289765234</ele>
        <time>2021-07-08T14:51:38.630Z</time>
      </trkpt>
      <trkpt lat="48.82849" lon="7.28144">
        <ele>249.11658933394</ele>
        <time>2021-07-08T14:51:40.427Z</time>
      </trkpt>
      <trkpt lat="48.82842" lon="7.28142">
        <ele>246.203413602</ele>
        <time>2021-07-08T14:51:42.227Z</time>
      </trkpt>
      <trkpt lat="48.82822" lon="7.28137">
        <ele>243.32885507209</ele>
        <time>2021-07-08T14:51:44.033Z</time>
      </trkpt>
      <trkpt lat="48.82687" lon="7.28163">
        <ele>241.00770399752</ele>
        <time>2021-07-08T14:51:45.885Z</time>
      </trkpt>
      <trkpt lat="48.82569" lon="7.28187">
        <ele>237.55729631601</ele>
        <time>2021-07-08T14:51:47.776Z</time>
      </trkpt>
      <trkpt lat="48.82531" lon="7.28187">
        <ele>234.60922003797</ele>
        <time>2021-07-08T14:51:49.680Z</time>
      </trkpt>
      <trkpt lat="48.8248" lon="7.28181">
        <ele>232.00091501914</ele>
        <time>2021-07-08T14:51:51.601Z</time>
      </trkpt>
      <trkpt lat="48.82475" lon="7.28183">
        <ele>229.9445045213</ele>
        <time>2021-07-08T14:51:53.524Z</time>
      </trkpt>
      <trkpt lat="48.82441" lon="7.28196">
        <ele>228.23676938747</ele>
        <time>2021-07-08T14:51:55.459Z</time>
      </trkpt>
      <trkpt lat="48.82438" lon="7.28197">
        <ele>226.50901376771</ele>
        <time>2021-07-08T14:51:57.395Z</time>
      </trkpt>
      <trkpt lat="48.82414" lon="7.28203">
        <ele>225.03488970355</ele>
        <time>2021-07-08T14:51:59.339Z</time>
      </trkpt>
      <trkpt lat="48.82392" lon="7.28207">
        <ele>223.66702706107</ele>
        <time>2021-07-08T14:52:01.290Z</time>
      </trkpt>
      <trkpt lat="48.82375" lon="7.28206">
        <ele>222.3360018296</ele>
        <time>2021-07-08T14:52:03.247Z</time>
      </trkpt>
      <trkpt lat="48.8236" lon="7.28203">
        <ele>221.06894108106</ele>
        <time>2021-07-08T14:52:05.209Z</time>
      </trkpt>
      <trkpt lat="48.82334" lon="7.28197">
        <ele>219.87501953919</ele>
        <time>2021-07-08T14:52:07.180Z</time>
      </trkpt>
      <trkpt lat="48.82319" lon="7.28193">
        <ele>218.77763085463</ele>
        <time>2021-07-08T14:52:09.156Z</time>
      </trkpt>
      <trkpt lat="48.82308" lon="7.28192">
        <ele>217.80149885257</ele>
        <time>2021-07-08T14:52:11.135Z</time>
      </trkpt>
      <trkpt lat="48.82287" lon="7.2819">
        <ele>216.89469685471</ele>
        <time>2021-07-08T14:52:13.121Z</time>
      </trkpt>
      <trkpt lat="48.82274" lon="7.2819">
        <ele>216.05766107896</ele>
        <time>2021-07-08T14:52:15.112Z</time>
      </trkpt>
      <trkpt lat="48.82262" lon="7.28188">
        <ele>215.11167914403</ele>
        <time>2021-07-08T14:52:17.107Z</time>
      </trkpt>
      <trkpt lat="48.8224" lon="7.28188">
        <ele>214.14172046013</ele>
        <time>2021-07-08T14:52:19.109Z</time>
      </trkpt>
      <trkpt lat="48.82216" lon="7.28185">
        <ele>213.13402657384</ele>
        <time>2021-07-08T14:52:21.119Z</time>
      </trkpt>
      <trkpt lat="48.82189" lon="7.28185">
        <ele>212.25977531969</ele>
        <time>2021-07-08T14:52:23.138Z</time>
      </trkpt>
      <trkpt lat="48.82176" lon="7.28187">
        <ele>211.6137378928</ele>
        <time>2021-07-08T14:52:25.162Z</time>
      </trkpt>
      <trkpt lat="48.82151" lon="7.28193">
        <ele>211.08045961192</ele>
        <time>2021-07-08T14:52:27.194Z</time>
      </trkpt>
      <trkpt lat="48.82133" lon="7.28196">
        <ele>210.50590751318</ele>
        <time>2021-07-08T14:52:29.232Z</time>
      </trkpt>
      <trkpt lat="48.82131" lon="7.28196">
        <ele>209.93114961895</ele>
        <time>2021-07-08T14:52:31.271Z</time>
      </trkpt>
      <trkpt lat="48.82126" lon="7.28196">
        <ele>209.37707056624</ele>
        <time>2021-07-08T14:52:33.311Z</time>
      </trkpt>
      <trkpt lat="48.82113" lon="7.28196">
        <ele>208.82213673897</ele>
        <time>2021-07-08T14:52:35.356Z</time>
      </trkpt>
      <trkpt lat="48.82099" lon="7.28194">
        <ele>208.30067083191</ele>
        <time>2021-07-08T14:52:37.405Z</time>
      </trkpt>
      <trkpt lat="48.82059" lon="7.28196">
        <ele>207.96219683585</ele>
        <time>2021-07-08T14:52:39.468Z</time>
      </trkpt>
      <trkpt lat="48.82038" lon="7.28195">
        <ele>207.57214447907</ele>
        <time>2021-07-08T14:52:41.538Z</time>
      </trkpt>
      <trkpt lat="48.82034" lon="7.28194">
        <ele>207.2556513316</ele>
        <time>2021-07-08T14:52:43.609Z</time>
      </trkpt>
      <trkpt lat="48.81956" lon="7.28187">
        <ele>206.88342210221</ele>
        <time>2021-07-08T14:52:45.706Z</time>
      </trkpt>
      <trkpt lat="48.81939" lon="7.2818">
        <ele>206.65624421188</ele>
        <time>2021-07-08T14:52:47.809Z</time>
      </trkpt>
      <trkpt lat="48.81928" lon="7.28174">
        <ele>206.45121784034</ele>
        <time>2021-07-08T14:52:49.916Z</time>
      </trkpt>
      <trkpt lat="48.81923" lon="7.28171">
        <ele>206.41350174949</ele>
        <time>2021-07-08T14:52:52.025Z</time>
      </trkpt>
      <trkpt lat="48.81903" lon="7.28181">
        <ele>206.76469771907</ele>
        <time>2021-07-08T14:52:54.141Z</time>
      </trkpt>
      <trkpt lat="48.81879" lon="7.28179">
        <ele>206.95242750997</ele>
        <time>2021-07-08T14:52:56.265Z</time>
      </trkpt>
      <trkpt lat="48.81855" lon="7.2819">
        <ele>207.20068218198</ele>
        <time>2021-07-08T14:52:58.397Z</time>
      </trkpt>
      <trkpt lat="48.81823" lon="7.28205">
        <ele>207.87723723758</ele>
        <time>2021-07-08T14:53:00.540Z</time>
      </trkpt>
      <trkpt lat="48.81783" lon="7.28245">
        <ele>208.00782543522</ele>
        <time>2021-07-08T14:53:02.699Z</time>
      </trkpt>
      <trkpt lat="48.81743" lon="7.28289">
        <ele>208.89756326238</ele>
        <time>2021-07-08T14:53:04.875Z</time>
      </trkpt>
      <trkpt lat="48.81715" lon="7.28333">
        <ele>209.62544913649</ele>
        <time>2021-07-08T14:53:07.064Z</time>
      </trkpt>
      <trkpt lat="48.81696" lon="7.2836">
        <ele>210.70592533149</ele>
        <time>2021-07-08T14:53:09.262Z</time>
      </trkpt>
      <trkpt lat="48.81675" lon="7.28392">
        <ele>212.00371922789</ele>
        <time>2021-07-08T14:53:11.470Z</time>
      </trkpt>
      <trkpt lat="48.81662" lon="7.28429">
        <ele>213.29729426088</ele>
        <time>2021-07-08T14:53:13.687Z</time>
      </trkpt>
      <trkpt lat="48.8165" lon="7.28469">
        <ele>214.78340944603</ele>
        <time>2021-07-08T14:53:15.914Z</time>
      </trkpt>
      <trkpt lat="48.81628" lon="7.28458">
        <ele>216.08253709535</ele>
        <time>2021-07-08T14:53:18.149Z</time>
      </trkpt>
      <trkpt lat="48.81602" lon="7.28446">
        <ele>217.54576916237</ele>
        <time>2021-07-08T14:53:20.393Z</time>
      </trkpt>
      <trkpt lat="48.8157" lon="7.28431">
        <ele>220.09771114873</ele>
        <time>2021-07-08T14:53:22.648Z</time>
      </trkpt>
      <trkpt lat="48.8156" lon="7.28424">
        <ele>221.97629118091</ele>
        <time>2021-07-08T14:53:24.907Z</time>
      </trkpt>
      <trkpt lat="48.81549" lon="7.28404">
        <ele>223.94554088018</ele>
        <time>2021-07-08T14:53:27.171Z</time>
      </trkpt>
      <trkpt lat="48.81543" lon="7.28413">
        <ele>225.55328583084</ele>
        <time>2021-07-08T14:53:29.438Z</time>
      </trkpt>
      <trkpt lat="48.81539" lon="7.2842">
        <ele>227.08427774869</ele>
        <time>2021-07-08T14:53:31.707Z</time>
      </trkpt>
      <trkpt lat="48.81534" lon="7.2843">
        <ele>228.50805569597</ele>
        <time>2021-07-08T14:53:33.979Z</time>
      </trkpt>
      <trkpt lat="48.81524" lon="7.28467">
        <ele>229.48680583674</ele>
        <time>2021-07-08T14:53:36.260Z</time>
      </trkpt>
      <trkpt lat="48.81518" lon="7.28494">
        <ele>230.44354165931</ele>
        <time>2021-07-08T14:53:38.547Z</time>
      </trkpt>
      <trkpt lat="48.81508" lon="7.28535">
        <ele>231.24784218729</ele>
        <time>2021-07-08T14:53:40.844Z</time>
      </trkpt>
      <trkpt lat="48.81496" lon="7.28557">
        <ele>232.23401408343</ele>
        <time>2021-07-08T14:53:43.147Z</time>
      </trkpt>
      <trkpt lat="48.81478" lon="7.28579">
        <ele>232.98455075649</ele>
        <time>2021-07-08T14:53:45.458Z</time>
      </trkpt>
      <trkpt lat="48.81447" lon="7.28606">
        <ele>234.01407558747</ele>
        <time>2021-07-08T14:53:47.781Z</time>
      </trkpt>
      <trkpt lat="48.81415" lon="7.2863">
        <ele>234.80012057657</ele>
        <time>2021-07-08T14:53:50.116Z</time>
      </trkpt>
      <trkpt lat="48.81414" lon="7.28631">
        <ele>236.02227158178</ele>
        <time>2021-07-08T14:53:52.451Z</time>
      </trkpt>
      <trkpt lat="48.81414" lon="7.28631">
        <ele>236.49877296035</ele>
        <time>2021-07-08T14:53:54.786Z</time>
      </trkpt>
      <trkpt lat="48.81384" lon="7.28644">
        <ele>236.93861250371</ele>
        <time>2021-07-08T14:53:57.131Z</time>
      </trkpt>
      <trkpt lat="48.81346" lon="7.28667">
        <ele>237.11513798387</ele>
        <time>2021-07-08T14:53:59.490Z</time>
      </trkpt>
      <trkpt lat="48.81311" lon="7.2869">
        <ele>237.37769682449</ele>
        <time>2021-07-08T14:54:01.862Z</time>
      </trkpt>
      <trkpt lat="48.81289" lon="7.28699">
        <ele>237.58018878403</ele>
        <time>2021-07-08T14:54:04.241Z</time>
      </trkpt>
      <trkpt lat="48.81283" lon="7.287">
        <ele>237.63028466007</ele>
        <time>2021-07-08T14:54:06.622Z</time>
      </trkpt>
      <trkpt lat="48.81277" lon="7.28699">
        <ele>237.60326588342</ele>
        <time>2021-07-08T14:54:09.005Z</time>
      </trkpt>
      <trkpt lat="48.81273" lon="7.28695">
        <ele>237.48925845227</ele>
        <time>2021-07-08T14:54:11.390Z</time>
      </trkpt>
      <trkpt lat="48.81267" lon="7.28691">
        <ele>237.33821425997</ele>
        <time>2021-07-08T14:54:13.777Z</time>
      </trkpt>
      <trkpt lat="48.81256" lon="7.28681">
        <ele>237.26987513524</ele>
        <time>2021-07-08T14:54:16.168Z</time>
      </trkpt>
      <trkpt lat="48.81254" lon="7.28691">
        <ele>236.61442178432</ele>
        <time>2021-07-08T14:54:18.562Z</time>
      </trkpt>
      <trkpt lat="48.81248" lon="7.28713">
        <ele>235.76041100077</ele>
        <time>2021-07-08T14:54:20.961Z</time>
      </trkpt>
      <trkpt lat="48.81235" lon="7.28753">
        <ele>234.96468415395</ele>
        <time>2021-07-08T14:54:23.370Z</time>
      </trkpt>
      <trkpt lat="48.81225" lon="7.28781">
        <ele>234.13324146936</ele>
        <time>2021-07-08T14:54:25.786Z</time>
      </trkpt>
      <trkpt lat="48.81214" lon="7.28802">
        <ele>233.14497538405</ele>
        <time>2021-07-08T14:54:28.208Z</time>
      </trkpt>
      <trkpt lat="48.81197" lon="7.28833">
        <ele>232.11299465411</ele>
        <time>2021-07-08T14:54:30.638Z</time>
      </trkpt>
      <trkpt lat="48.81169" lon="7.28882">
        <ele>230.56480126315</ele>
        <time>2021-07-08T14:54:33.083Z</time>
      </trkpt>
      <trkpt lat="48.8114" lon="7.28923">
        <ele>229.17627033318</ele>
        <time>2021-07-08T14:54:35.541Z</time>
      </trkpt>
      <trkpt lat="48.81111" lon="7.28958">
        <ele>227.73420265253</ele>
        <time>2021-07-08T14:54:38.011Z</time>
      </trkpt>
      <trkpt lat="48.81081" lon="7.28989">
        <ele>226.22366838467</ele>
        <time>2021-07-08T14:54:40.493Z</time>
      </trkpt>
      <trkpt lat="48.81059" lon="7.29011">
        <ele>225.11627463744</ele>
        <time>2021-07-08T14:54:42.984Z</time>
      </trkpt>
      <trkpt lat="48.81041" lon="7.29036">
        <ele>223.91317377672</ele>
        <time>2021-07-08T14:54:45.483Z</time>
      </trkpt>
      <trkpt lat="48.81027" lon="7.29058">
        <ele>222.66475119217</ele>
        <time>2021-07-08T14:54:47.989Z</time>
      </trkpt>
      <trkpt lat="48.81012" lon="7.29073">
        <ele>221.69834580141</ele>
        <time>2021-07-08T14:54:50.501Z</time>
      </trkpt>
      <trkpt lat="48.80995" lon="7.29097">
        <ele>220.89422226428</ele>
        <time>2021-07-08T14:54:53.021Z</time>
      </trkpt>
      <trkpt lat="48.80979" lon="7.29114">
        <ele>220.29097305241</ele>
        <time>2021-07-08T14:54:55.547Z</time>
      </trkpt>
      <trkpt lat="48.80963" lon="7.29124">
        <ele>219.7419960767</ele>
        <time>2021-07-08T14:54:58.079Z</time>
      </trkpt>
      <trkpt lat="48.8094" lon="7.29137">
        <ele>219.29428960252</ele>
        <time>2021-07-08T14:55:00.619Z</time>
      </trkpt>
      <trkpt lat="48.80906" lon="7.29164">
        <ele>219.06307144428</ele>
        <time>2021-07-08T14:55:03.172Z</time>
      </trkpt>
      <trkpt lat="48.80885" lon="7.29184">
        <ele>219.00342686814</ele>
        <time>2021-07-08T14:55:05.733Z</time>
      </trkpt>
      <trkpt lat="48.80866" lon="7.29207">
        <ele>218.75876290555</ele>
        <time>2021-07-08T14:55:08.303Z</time>
      </trkpt>
      <trkpt lat="48.80851" lon="7.29229">
        <ele>218.56942609564</ele>
        <time>2021-07-08T14:55:10.880Z</time>
      </trkpt>
      <trkpt lat="48.80839" lon="7.29238">
        <ele>218.66807676411</ele>
        <time>2021-07-08T14:55:13.461Z</time>
      </trkpt>
      <trkpt lat="48.80829" lon="7.29246">
        <ele>218.81995966587</ele>
        <time>2021-07-08T14:55:16.046Z</time>
      </trkpt>
      <trkpt lat="48.80822" lon="7.29252">
        <ele>219.07266554966</ele>
        <time>2021-07-08T14:55:18.633Z</time>
      </trkpt>
      <trkpt lat="48.80796" lon="7.29281">
        <ele>219.35943520784</ele>
        <time>2021-07-08T14:55:21.231Z</time>
      </trkpt>
      <trkpt lat="48.80742" lon="7.29328">
        <ele>219.58416472361</ele>
        <time>2021-07-08T14:55:23.850Z</time>
      </trkpt>
      <trkpt lat="48.80717" lon="7.29345">
        <ele>220.20039703847</ele>
        <time>2021-07-08T14:55:26.478Z</time>
      </trkpt>
      <trkpt lat="48.80694" lon="7.29368">
        <ele>220.65419208872</ele>
        <time>2021-07-08T14:55:29.115Z</time>
      </trkpt>
      <trkpt lat="48.80675" lon="7.29389">
        <ele>221.17829070113</ele>
        <time>2021-07-08T14:55:31.760Z</time>
      </trkpt>
      <trkpt lat="48.80666" lon="7.29391">
        <ele>221.81927536322</ele>
        <time>2021-07-08T14:55:34.408Z</time>
      </trkpt>
      <trkpt lat="48.8066" lon="7.2939">
        <ele>222.45963615333</ele>
        <time>2021-07-08T14:55:37.058Z</time>
      </trkpt>
      <trkpt lat="48.80649" lon="7.29388">
        <ele>223.19898318019</ele>
        <time>2021-07-08T14:55:39.712Z</time>
      </trkpt>
      <trkpt lat="48.80641" lon="7.29395">
        <ele>223.76324986592</ele>
        <time>2021-07-08T14:55:42.369Z</time>
      </trkpt>
      <trkpt lat="48.80631" lon="7.29418">
        <ele>224.20681266504</ele>
        <time>2021-07-08T14:55:45.032Z</time>
      </trkpt>
      <trkpt lat="48.80628" lon="7.29425">
        <ele>224.60278637165</ele>
        <time>2021-07-08T14:55:47.697Z</time>
      </trkpt>
      <trkpt lat="48.80622" lon="7.29429">
        <ele>225.01628231853</ele>
        <time>2021-07-08T14:55:50.364Z</time>
      </trkpt>
      <trkpt lat="48.80609" lon="7.29535">
        <ele>224.67558875282</ele>
        <time>2021-07-08T14:55:53.055Z</time>
      </trkpt>
      <trkpt lat="48.80605" lon="7.29569">
        <ele>224.7319975178</ele>
        <time>2021-07-08T14:55:55.754Z</time>
      </trkpt>
      <trkpt lat="48.80596" lon="7.29612">
        <ele>224.87111674938</ele>
        <time>2021-07-08T14:55:58.462Z</time>
      </trkpt>
      <trkpt lat="48.80587" lon="7.29659">
        <ele>225.00356210156</ele>
        <time>2021-07-08T14:56:01.181Z</time>
      </trkpt>
      <trkpt lat="48.80583" lon="7.29677">
        <ele>225.15885266505</ele>
        <time>2021-07-08T14:56:03.904Z</time>
      </trkpt>
      <trkpt lat="48.80572" lon="7.29755">
        <ele>225.46803089708</ele>
        <time>2021-07-08T14:56:06.645Z</time>
      </trkpt>
      <trkpt lat="48.80563" lon="7.29819">
        <ele>225.27102153754</ele>
        <time>2021-07-08T14:56:09.400Z</time>
      </trkpt>
      <trkpt lat="48.80552" lon="7.29885">
        <ele>224.91699277138</ele>
        <time>2021-07-08T14:56:12.170Z</time>
      </trkpt>
      <trkpt lat="48.80544" lon="7.29921">
        <ele>224.61919114888</ele>
        <time>2021-07-08T14:56:14.949Z</time>
      </trkpt>
      <trkpt lat="48.80536" lon="7.29947">
        <ele>224.32100789514</ele>
        <time>2021-07-08T14:56:17.734Z</time>
      </trkpt>
      <trkpt lat="48.80524" lon="7.29976">
        <ele>223.82099906966</ele>
        <time>2021-07-08T14:56:20.527Z</time>
      </trkpt>
      <trkpt lat="48.80507" lon="7.30004">
        <ele>223.66827291333</ele>
        <time>2021-07-08T14:56:23.328Z</time>
      </trkpt>
      <trkpt lat="48.80489" lon="7.30036">
        <ele>223.61238513463</ele>
        <time>2021-07-08T14:56:26.138Z</time>
      </trkpt>
      <trkpt lat="48.80475" lon="7.30057">
        <ele>223.21076693042</ele>
        <time>2021-07-08T14:56:28.955Z</time>
      </trkpt>
      <trkpt lat="48.80453" lon="7.30083">
        <ele>222.71130890416</ele>
        <time>2021-07-08T14:56:31.781Z</time>
      </trkpt>
      <trkpt lat="48.80423" lon="7.30115">
        <ele>222.456207185</ele>
        <time>2021-07-08T14:56:34.619Z</time>
      </trkpt>
      <trkpt lat="48.80397" lon="7.30141">
        <ele>222.26450009811</ele>
        <time>2021-07-08T14:56:37.468Z</time>
      </trkpt>
      <trkpt lat="48.80377" lon="7.30164">
        <ele>221.95732475798</ele>
        <time>2021-07-08T14:56:40.325Z</time>
      </trkpt>
      <trkpt lat="48.8036" lon="7.30185">
        <ele>221.7731158946</ele>
        <time>2021-07-08T14:56:43.190Z</time>
      </trkpt>
      <trkpt lat="48.8033" lon="7.30228">
        <ele>221.65747125388</ele>
        <time>2021-07-08T14:56:46.068Z</time>
      </trkpt>
      <trkpt lat="48.80308" lon="7.30269">
        <ele>221.31908658013</ele>
        <time>2021-07-08T14:56:48.958Z</time>
      </trkpt>
      <trkpt lat="48.803" lon="7.3029">
        <ele>220.85332623979</ele>
        <time>2021-07-08T14:56:51.853Z</time>
      </trkpt>
      <trkpt lat="48.8029" lon="7.30326">
        <ele>220.22533925053</ele>
        <time>2021-07-08T14:56:54.757Z</time>
      </trkpt>
      <trkpt lat="48.80282" lon="7.30365">
        <ele>219.61271498762</ele>
        <time>2021-07-08T14:56:57.670Z</time>
      </trkpt>
      <trkpt lat="48.8027" lon="7.30409">
        <ele>218.93471154998</ele>
        <time>2021-07-08T14:57:00.593Z</time>
      </trkpt>
      <trkpt lat="48.80249" lon="7.30472">
        <ele>218.52233132516</ele>
        <time>2021-07-08T14:57:03.532Z</time>
      </trkpt>
      <trkpt lat="48.8022" lon="7.30553">
        <ele>217.68178849389</ele>
        <time>2021-07-08T14:57:06.491Z</time>
      </trkpt>
      <trkpt lat="48.80195" lon="7.30611">
        <ele>216.92596088113</ele>
        <time>2021-07-08T14:57:09.466Z</time>
      </trkpt>
      <trkpt lat="48.80175" lon="7.30646">
        <ele>216.02167142302</ele>
        <time>2021-07-08T14:57:12.451Z</time>
      </trkpt>
      <trkpt lat="48.80157" lon="7.30669">
        <ele>215.35332132358</ele>
        <time>2021-07-08T14:57:15.444Z</time>
      </trkpt>
      <trkpt lat="48.80146" lon="7.3068">
        <ele>214.80039168238</ele>
        <time>2021-07-08T14:57:18.441Z</time>
      </trkpt>
      <trkpt lat="48.80129" lon="7.3069">
        <ele>214.2836431968</ele>
        <time>2021-07-08T14:57:21.444Z</time>
      </trkpt>
      <trkpt lat="48.80116" lon="7.30695">
        <ele>213.58146865727</ele>
        <time>2021-07-08T14:57:24.452Z</time>
      </trkpt>
      <trkpt lat="48.80087" lon="7.3071">
        <ele>212.92648180613</ele>
        <time>2021-07-08T14:57:27.470Z</time>
      </trkpt>
      <trkpt lat="48.80076" lon="7.30717">
        <ele>212.29470700543</ele>
        <time>2021-07-08T14:57:30.492Z</time>
      </trkpt>
      <trkpt lat="48.80053" lon="7.30732">
        <ele>211.61318281579</ele>
        <time>2021-07-08T14:57:33.522Z</time>
      </trkpt>
      <trkpt lat="48.8002" lon="7.30766">
        <ele>210.82574236012</ele>
        <time>2021-07-08T14:57:36.565Z</time>
      </trkpt>
      <trkpt lat="48.79997" lon="7.30798">
        <ele>210.05913519306</ele>
        <time>2021-07-08T14:57:39.619Z</time>
      </trkpt>
      <trkpt lat="48.79972" lon="7.30842">
        <ele>209.28340337524</ele>
        <time>2021-07-08T14:57:42.686Z</time>
      </trkpt>
      <trkpt lat="48.79954" lon="7.30878">
        <ele>208.55644300762</ele>
        <time>2021-07-08T14:57:45.763Z</time>
      </trkpt>
      <trkpt lat="48.7994" lon="7.30894">
        <ele>207.89493720603</ele>
        <time>2021-07-08T14:57:48.845Z</time>
      </trkpt>
      <trkpt lat="48.79926" lon="7.30903">
        <ele>207.3260593515</ele>
        <time>2021-07-08T14:57:51.932Z</time>
      </trkpt>
      <trkpt lat="48.79916" lon="7.30907">
        <ele>206.91972733344</ele>
        <time>2021-07-08T14:57:55.023Z</time>
      </trkpt>
      <trkpt lat="48.79906" lon="7.30907">
        <ele>206.57229377668</ele>
        <time>2021-07-08T14:57:58.117Z</time>
      </trkpt>
      <trkpt lat="48.79898" lon="7.30904">
        <ele>206.27052165036</ele>
        <time>2021-07-08T14:58:01.214Z</time>
      </trkpt>
      <trkpt lat="48.79891" lon="7.30899">
        <ele>206.00032219843</ele>
        <time>2021-07-08T14:58:04.314Z</time>
      </trkpt>
      <trkpt lat="48.79882" lon="7.30884">
        <ele>205.78326530605</ele>
        <time>2021-07-08T14:58:07.418Z</time>
      </trkpt>
      <trkpt lat="48.79874" lon="7.3086">
        <ele>205.59721926633</ele>
        <time>2021-07-08T14:58:10.528Z</time>
      </trkpt>
      <trkpt lat="48.79856" lon="7.30807">
        <ele>205.50244857408</ele>
        <time>2021-07-08T14:58:13.651Z</time>
      </trkpt>
      <trkpt lat="48.79852" lon="7.30795">
        <ele>205.24395727057</ele>
        <time>2021-07-08T14:58:16.777Z</time>
      </trkpt>
      <trkpt lat="48.79835" lon="7.30744">
        <ele>205.32752514226</ele>
        <time>2021-07-08T14:58:19.916Z</time>
      </trkpt>
      <trkpt lat="48.79833" lon="7.30753">
        <ele>204.85143977308</ele>
        <time>2021-07-08T14:58:23.057Z</time>
      </trkpt>
      <trkpt lat="48.79828" lon="7.30772">
        <ele>204.2843030842</ele>
        <time>2021-07-08T14:58:26.202Z</time>
      </trkpt>
      <trkpt lat="48.79826" lon="7.30779">
        <ele>203.5879488801</ele>
        <time>2021-07-08T14:58:29.349Z</time>
      </trkpt>
      <trkpt lat="48.79823" lon="7.30788">
        <ele>202.79145285926</ele>
        <time>2021-07-08T14:58:32.498Z</time>
      </trkpt>
      <trkpt lat="48.79812" lon="7.30823">
        <ele>202.00446082088</ele>
        <time>2021-07-08T14:58:35.656Z</time>
      </trkpt>
      <trkpt lat="48.79806" lon="7.30847">
        <ele>200.99784786149</ele>
        <time>2021-07-08T14:58:38.819Z</time>
      </trkpt>
      <trkpt lat="48.79804" lon="7.3086">
        <ele>199.83143699961</ele>
        <time>2021-07-08T14:58:41.985Z</time>
      </trkpt>
      <trkpt lat="48.79802" lon="7.30886">
        <ele>198.35105432424</ele>
        <time>2021-07-08T14:58:45.157Z</time>
      </trkpt>
      <trkpt lat="48.79802" lon="7.30906">
        <ele>196.82803788803</ele>
        <time>2021-07-08T14:58:48.334Z</time>
      </trkpt>
      <trkpt lat="48.79802" lon="7.30949">
        <ele>195.28908300564</ele>
        <time>2021-07-08T14:58:51.520Z</time>
      </trkpt>
      <trkpt lat="48.79804" lon="7.30978">
        <ele>193.71866927966</ele>
        <time>2021-07-08T14:58:54.712Z</time>
      </trkpt>
      <trkpt lat="48.79808" lon="7.31002">
        <ele>192.24506397844</ele>
        <time>2021-07-08T14:58:57.910Z</time>
      </trkpt>
      <trkpt lat="48.79815" lon="7.31031">
        <ele>190.96245436585</ele>
        <time>2021-07-08T14:59:01.115Z</time>
      </trkpt>
      <trkpt lat="48.79824" lon="7.31057">
        <ele>189.767524859</ele>
        <time>2021-07-08T14:59:04.326Z</time>
      </trkpt>
      <trkpt lat="48.79833" lon="7.31075">
        <ele>188.72962263413</ele>
        <time>2021-07-08T14:59:07.542Z</time>
      </trkpt>
      <trkpt lat="48.79844" lon="7.31088">
        <ele>187.89000623653</ele>
        <time>2021-07-08T14:59:10.763Z</time>
      </trkpt>
      <trkpt lat="48.79857" lon="7.31097">
        <ele>187.29388327831</ele>
        <time>2021-07-08T14:59:13.989Z</time>
      </trkpt>
      <trkpt lat="48.79866" lon="7.311">
        <ele>187.06634192868</ele>
        <time>2021-07-08T14:59:17.218Z</time>
      </trkpt>
      <trkpt lat="48.79875" lon="7.31101">
        <ele>187.14884365876</ele>
        <time>2021-07-08T14:59:20.450Z</time>
      </trkpt>
      <trkpt lat="48.79882" lon="7.311">
        <ele>187.56971023018</ele>
        <time>2021-07-08T14:59:23.684Z</time>
      </trkpt>
      <trkpt lat="48.79875" lon="7.31108">
        <ele>188.38081730286</ele>
        <time>2021-07-08T14:59:26.921Z</time>
      </trkpt>
      <trkpt lat="48.79858" lon="7.31126">
        <ele>189.58992409886</ele>
        <time>2021-07-08T14:59:30.165Z</time>
      </trkpt>
      <trkpt lat="48.79832" lon="7.31154">
        <ele>191.40182151165</ele>
        <time>2021-07-08T14:59:33.419Z</time>
      </trkpt>
      <trkpt lat="48.79821" lon="7.31169">
        <ele>193.53919159611</ele>
        <time>2021-07-08T14:59:36.678Z</time>
      </trkpt>
      <trkpt lat="48.79814" lon="7.31184">
        <ele>196.10627219293</ele>
        <time>2021-07-08T14:59:39.941Z</time>
      </trkpt>
      <trkpt lat="48.79807" lon="7.31212">
        <ele>199.18595392906</ele>
        <time>2021-07-08T14:59:43.211Z</time>
      </trkpt>
      <trkpt lat="48.79806" lon="7.31228">
        <ele>202.66480193366</ele>
        <time>2021-07-08T14:59:46.485Z</time>
      </trkpt>
      <trkpt lat="48.79806" lon="7.31245">
        <ele>206.58536886877</ele>
        <time>2021-07-08T14:59:49.762Z</time>
      </trkpt>
      <trkpt lat="48.79807" lon="7.31266">
        <ele>210.87546022137</ele>
        <time>2021-07-08T14:59:53.044Z</time>
      </trkpt>
      <trkpt lat="48.79809" lon="7.31285">
        <ele>215.57613585856</ele>
        <time>2021-07-08T14:59:56.330Z</time>
      </trkpt>
      <trkpt lat="48.79811" lon="7.31304">
        <ele>220.77286340975</ele>
        <time>2021-07-08T14:59:59.620Z</time>
      </trkpt>
      <trkpt lat="48.7981" lon="7.31304">
        <ele>226.28283215476</ele>
        <time>2021-07-08T15:00:02.911Z</time>
      </trkpt>
      <trkpt lat="48.79734" lon="7.31281">
        <ele>233.30022119408</ele>
        <time>2021-07-08T15:00:06.228Z</time>
      </trkpt>
      <trkpt lat="48.79674" lon="7.31252">
        <ele>240.3321350202</ele>
        <time>2021-07-08T15:00:09.566Z</time>
      </trkpt>
      <trkpt lat="48.79642" lon="7.3124">
        <ele>247.09669212003</ele>
        <time>2021-07-08T15:00:12.915Z</time>
      </trkpt>
      <trkpt lat="48.79615" lon="7.31238">
        <ele>254.04953778626</ele>
        <time>2021-07-08T15:00:16.273Z</time>
      </trkpt>
      <trkpt lat="48.79566" lon="7.31233">
        <ele>261.22233554561</ele>
        <time>2021-07-08T15:00:19.647Z</time>
      </trkpt>
      <trkpt lat="48.79507" lon="7.31231">
        <ele>268.49720878462</ele>
        <time>2021-07-08T15:00:23.041Z</time>
      </trkpt>
      <trkpt lat="48.79448" lon="7.31222">
        <ele>275.54958673903</ele>
        <time>2021-07-08T15:00:26.455Z</time>
      </trkpt>
      <trkpt lat="48.79441" lon="7.31221">
        <ele>282.14673100845</ele>
        <time>2021-07-08T15:00:29.871Z</time>
      </trkpt>
      <trkpt lat="48.79339" lon="7.31206">
        <ele>289.04847843892</ele>
        <time>2021-07-08T15:00:33.321Z</time>
      </trkpt>
      <trkpt lat="48.79278" lon="7.31203">
        <ele>295.84402261578</ele>
        <time>2021-07-08T15:00:36.791Z</time>
      </trkpt>
      <trkpt lat="48.79217" lon="7.31204">
        <ele>302.17944851789</ele>
        <time>2021-07-08T15:00:40.282Z</time>
      </trkpt>
      <trkpt lat="48.79207" lon="7.31207">
        <ele>308.03077107452</ele>
        <time>2021-07-08T15:00:43.776Z</time>
      </trkpt>
      <trkpt lat="48.7918" lon="7.31216">
        <ele>313.69407384432</ele>
        <time>2021-07-08T15:00:47.279Z</time>
      </trkpt>
      <trkpt lat="48.79179" lon="7.31216">
        <ele>323.8253285483</ele>
        <time>2021-07-08T15:00:50.783Z</time>
      </trkpt>
      <trkpt lat="48.79179" lon="7.31216">
        <ele>328.39678260978</ele>
        <time>2021-07-08T15:00:54.287Z</time>
      </trkpt>
      <trkpt lat="48.791" lon="7.31246">
        <ele>333.09144570835</ele>
        <time>2021-07-08T15:00:57.818Z</time>
      </trkpt>
      <trkpt lat="48.79063" lon="7.31254">
        <ele>337.16598844272</ele>
        <time>2021-07-08T15:01:01.361Z</time>
      </trkpt>
      <trkpt lat="48.79006" lon="7.31261">
        <ele>340.99987975204</ele>
        <time>2021-07-08T15:01:04.923Z</time>
      </trkpt>
      <trkpt lat="48.7896" lon="7.31266">
        <ele>344.51969429894</ele>
        <time>2021-07-08T15:01:08.501Z</time>
      </trkpt>
      <trkpt lat="48.78937" lon="7.31276">
        <ele>347.36631298499</ele>
        <time>2021-07-08T15:01:12.087Z</time>
      </trkpt>
      <trkpt lat="48.78934" lon="7.31277">
        <ele>349.66890665567</ele>
        <time>2021-07-08T15:01:15.674Z</time>
      </trkpt>
      <trkpt lat="48.78925" lon="7.31251">
        <ele>351.57208245358</ele>
        <time>2021-07-08T15:01:19.267Z</time>
      </trkpt>
      <trkpt lat="48.78923" lon="7.31254">
        <ele>353.08619914298</ele>
        <time>2021-07-08T15:01:22.861Z</time>
      </trkpt>
      <trkpt lat="48.7892" lon="7.31257">
        <ele>354.22393672985</ele>
        <time>2021-07-08T15:01:26.456Z</time>
      </trkpt>
      <trkpt lat="48.78897" lon="7.31264">
        <ele>355.05306661006</ele>
        <time>2021-07-08T15:01:30.059Z</time>
      </trkpt>
      <trkpt lat="48.78862" lon="7.31278">
        <ele>355.58462981588</ele>
        <time>2021-07-08T15:01:33.674Z</time>
      </trkpt>
      <trkpt lat="48.78832" lon="7.31285">
        <ele>355.61503698068</ele>
        <time>2021-07-08T15:01:37.300Z</time>
      </trkpt>
      <trkpt lat="48.78808" lon="7.31289">
        <ele>355.30533821569</ele>
        <time>2021-07-08T15:01:40.934Z</time>
      </trkpt>
      <trkpt lat="48.78781" lon="7.31297">
        <ele>354.73830895233</ele>
        <time>2021-07-08T15:01:44.577Z</time>
      </trkpt>
      <trkpt lat="48.78769" lon="7.313">
        <ele>353.91391685568</ele>
        <time>2021-07-08T15:01:48.224Z</time>
      </trkpt>
      <trkpt lat="48.78758" lon="7.31298">
        <ele>352.81538617812</ele>
        <time>2021-07-08T15:01:51.874Z</time>
      </trkpt>
      <trkpt lat="48.78755" lon="7.31297">
        <ele>351.53268169727</ele>
        <time>2021-07-08T15:01:55.526Z</time>
      </trkpt>
      <trkpt lat="48.78746" lon="7.31294">
        <ele>350.02572649571</ele>
        <time>2021-07-08T15:01:59.181Z</time>
      </trkpt>
      <trkpt lat="48.78722" lon="7.31289">
        <ele>348.28401531771</ele>
        <time>2021-07-08T15:02:02.844Z</time>
      </trkpt>
      <trkpt lat="48.78695" lon="7.31288">
        <ele>346.400717877</ele>
        <time>2021-07-08T15:02:06.516Z</time>
      </trkpt>
      <trkpt lat="48.78671" lon="7.31289">
        <ele>344.41079184529</ele>
        <time>2021-07-08T15:02:10.196Z</time>
      </trkpt>
      <trkpt lat="48.7864" lon="7.31292">
        <ele>342.27545267352</ele>
        <time>2021-07-08T15:02:13.886Z</time>
      </trkpt>
      <trkpt lat="48.78611" lon="7.3129">
        <ele>340.03072627319</ele>
        <time>2021-07-08T15:02:17.586Z</time>
      </trkpt>
      <trkpt lat="48.78598" lon="7.31287">
        <ele>337.92973965618</ele>
        <time>2021-07-08T15:02:21.290Z</time>
      </trkpt>
      <trkpt lat="48.78595" lon="7.31285">
        <ele>335.86251093548</ele>
        <time>2021-07-08T15:02:24.995Z</time>
      </trkpt>
      <trkpt lat="48.78584" lon="7.31279">
        <ele>333.80985917757</ele>
        <time>2021-07-08T15:02:28.704Z</time>
      </trkpt>
      <trkpt lat="48.7857" lon="7.31264">
        <ele>331.78589350581</ele>
        <time>2021-07-08T15:02:32.419Z</time>
      </trkpt>
      <trkpt lat="48.78538" lon="7.31224">
        <ele>329.80130488368</ele>
        <time>2021-07-08T15:02:36.148Z</time>
      </trkpt>
      <trkpt lat="48.78517" lon="7.31199">
        <ele>327.85942995032</ele>
        <time>2021-07-08T15:02:39.886Z</time>
      </trkpt>
      <trkpt lat="48.78476" lon="7.31164">
        <ele>325.94667545751</ele>
        <time>2021-07-08T15:02:43.639Z</time>
      </trkpt>
      <trkpt lat="48.78445" lon="7.31146">
        <ele>324.15105752388</ele>
        <time>2021-07-08T15:02:47.403Z</time>
      </trkpt>
      <trkpt lat="48.78416" lon="7.3114">
        <ele>322.36688658896</ele>
        <time>2021-07-08T15:02:51.177Z</time>
      </trkpt>
      <trkpt lat="48.78364" lon="7.31128">
        <ele>320.37514452756</ele>
        <time>2021-07-08T15:02:54.969Z</time>
      </trkpt>
      <trkpt lat="48.78354" lon="7.31125">
        <ele>318.87107514042</ele>
        <time>2021-07-08T15:02:58.764Z</time>
      </trkpt>
      <trkpt lat="48.78301" lon="7.31111">
        <ele>317.3302163998</ele>
        <time>2021-07-08T15:03:02.577Z</time>
      </trkpt>
      <trkpt lat="48.78268" lon="7.31101">
        <ele>316.05278290409</ele>
        <time>2021-07-08T15:03:06.401Z</time>
      </trkpt>
      <trkpt lat="48.78261" lon="7.31099">
        <ele>315.11974117192</ele>
        <time>2021-07-08T15:03:10.228Z</time>
      </trkpt>
      <trkpt lat="48.78245" lon="7.31097">
        <ele>314.37018756618</ele>
        <time>2021-07-08T15:03:14.060Z</time>
      </trkpt>
      <trkpt lat="48.78231" lon="7.31097">
        <ele>313.76690000706</ele>
        <time>2021-07-08T15:03:17.897Z</time>
      </trkpt>
      <trkpt lat="48.78221" lon="7.31099">
        <ele>313.30080735377</ele>
        <time>2021-07-08T15:03:21.737Z</time>
      </trkpt>
      <trkpt lat="48.78208" lon="7.31103">
        <ele>312.99082114809</ele>
        <time>2021-07-08T15:03:25.581Z</time>
      </trkpt>
      <trkpt lat="48.78184" lon="7.31114">
        <ele>312.92744634094</ele>
        <time>2021-07-08T15:03:29.434Z</time>
      </trkpt>
      <trkpt lat="48.78159" lon="7.31136">
        <ele>312.95227834851</ele>
        <time>2021-07-08T15:03:33.296Z</time>
      </trkpt>
      <trkpt lat="48.78147" lon="7.31152">
        <ele>313.13189352667</ele>
        <time>2021-07-08T15:03:37.164Z</time>
      </trkpt>
      <trkpt lat="48.78142" lon="7.31159">
        <ele>313.34092084507</ele>
        <time>2021-07-08T15:03:41.034Z</time>
      </trkpt>
      <trkpt lat="48.78137" lon="7.31167">
        <ele>313.6265856118</ele>
        <time>2021-07-08T15:03:44.907Z</time>
      </trkpt>
      <trkpt lat="48.78135" lon="7.31174">
        <ele>313.94727131758</ele>
        <time>2021-07-08T15:03:48.781Z</time>
      </trkpt>
      <trkpt lat="48.7813" lon="7.31197">
        <ele>314.33939985968</ele>
        <time>2021-07-08T15:03:52.661Z</time>
      </trkpt>
      <trkpt lat="48.7812" lon="7.31239">
        <ele>314.85121974378</ele>
        <time>2021-07-08T15:03:56.550Z</time>
      </trkpt>
      <trkpt lat="48.78106" lon="7.3129">
        <ele>315.40358800194</ele>
        <time>2021-07-08T15:04:00.452Z</time>
      </trkpt>
      <trkpt lat="48.78097" lon="7.31316">
        <ele>315.89739975549</ele>
        <time>2021-07-08T15:04:04.360Z</time>
      </trkpt>
      <trkpt lat="48.78085" lon="7.3134">
        <ele>316.40813976867</ele>
        <time>2021-07-08T15:04:08.275Z</time>
      </trkpt>
      <trkpt lat="48.78067" lon="7.31368">
        <ele>316.96955760633</ele>
        <time>2021-07-08T15:04:12.198Z</time>
      </trkpt>
      <trkpt lat="48.78027" lon="7.3141">
        <ele>317.40943460994</ele>
        <time>2021-07-08T15:04:16.138Z</time>
      </trkpt>
      <trkpt lat="48.77993" lon="7.31449">
        <ele>317.567097601</ele>
        <time>2021-07-08T15:04:20.092Z</time>
      </trkpt>
      <trkpt lat="48.77986" lon="7.31458">
        <ele>317.95600453104</ele>
        <time>2021-07-08T15:04:24.049Z</time>
      </trkpt>
      <trkpt lat="48.7794" lon="7.31508">
        <ele>318.43442628743</ele>
        <time>2021-07-08T15:04:28.025Z</time>
      </trkpt>
      <trkpt lat="48.77923" lon="7.31529">
        <ele>318.94547816492</ele>
        <time>2021-07-08T15:04:32.008Z</time>
      </trkpt>
      <trkpt lat="48.77916" lon="7.31537">
        <ele>319.41861234257</ele>
        <time>2021-07-08T15:04:35.994Z</time>
      </trkpt>
      <trkpt lat="48.77885" lon="7.31596">
        <ele>320.04445354615</ele>
        <time>2021-07-08T15:04:39.997Z</time>
      </trkpt>
      <trkpt lat="48.77879" lon="7.31606">
        <ele>320.5198002397</ele>
        <time>2021-07-08T15:04:44.003Z</time>
      </trkpt>
      <trkpt lat="48.77872" lon="7.31616">
        <ele>320.97086510848</ele>
        <time>2021-07-08T15:04:48.012Z</time>
      </trkpt>
      <trkpt lat="48.77857" lon="7.31634">
        <ele>321.44097769089</ele>
        <time>2021-07-08T15:04:52.027Z</time>
      </trkpt>
      <trkpt lat="48.77849" lon="7.31639">
        <ele>321.88058179567</ele>
        <time>2021-07-08T15:04:56.045Z</time>
      </trkpt>
      <trkpt lat="48.77838" lon="7.31642">
        <ele>322.32529557728</ele>
        <time>2021-07-08T15:05:00.067Z</time>
      </trkpt>
      <trkpt lat="48.77827" lon="7.31643">
        <ele>322.76625103606</ele>
        <time>2021-07-08T15:05:04.092Z</time>
      </trkpt>
      <trkpt lat="48.77815" lon="7.31642">
        <ele>323.21279065465</ele>
        <time>2021-07-08T15:05:08.121Z</time>
      </trkpt>
      <trkpt lat="48.77801" lon="7.3164">
        <ele>323.67350487397</ele>
        <time>2021-07-08T15:05:12.155Z</time>
      </trkpt>
      <trkpt lat="48.77772" lon="7.31633">
        <ele>324.1972477488</ele>
        <time>2021-07-08T15:05:16.199Z</time>
      </trkpt>
      <trkpt lat="48.77743" lon="7.31623">
        <ele>324.58940386724</ele>
        <time>2021-07-08T15:05:20.253Z</time>
      </trkpt>
      <trkpt lat="48.77729" lon="7.31615">
        <ele>325.04000071769</ele>
        <time>2021-07-08T15:05:24.312Z</time>
      </trkpt>
      <trkpt lat="48.77714" lon="7.31606">
        <ele>325.52344851506</ele>
        <time>2021-07-08T15:05:28.376Z</time>
      </trkpt>
      <trkpt lat="48.777" lon="7.31596">
        <ele>326.04109407223</ele>
        <time>2021-07-08T15:05:32.445Z</time>
      </trkpt>
      <trkpt lat="48.77687" lon="7.31585">
        <ele>326.61989911519</ele>
        <time>2021-07-08T15:05:36.519Z</time>
      </trkpt>
      <trkpt lat="48.77636" lon="7.31532">
        <ele>327.31902657353</ele>
        <time>2021-07-08T15:05:40.614Z</time>
      </trkpt>
      <trkpt lat="48.77624" lon="7.31521">
        <ele>328.0422315237</ele>
        <time>2021-07-08T15:05:44.714Z</time>
      </trkpt>
      <trkpt lat="48.77596" lon="7.31497">
        <ele>328.87966286999</ele>
        <time>2021-07-08T15:05:48.824Z</time>
      </trkpt>
      <trkpt lat="48.77585" lon="7.31488">
        <ele>329.77819532938</ele>
        <time>2021-07-08T15:05:52.939Z</time>
      </trkpt>
      <trkpt lat="48.77574" lon="7.31467">
        <ele>330.79579954948</ele>
        <time>2021-07-08T15:05:57.060Z</time>
      </trkpt>
      <trkpt lat="48.77563" lon="7.3145">
        <ele>331.86868503695</ele>
        <time>2021-07-08T15:06:01.186Z</time>
      </trkpt>
      <trkpt lat="48.77553" lon="7.31437">
        <ele>333.01299054933</ele>
        <time>2021-07-08T15:06:05.316Z</time>
      </trkpt>
      <trkpt lat="48.77543" lon="7.31426">
        <ele>334.23432875625</ele>
        <time>2021-07-08T15:06:09.450Z</time>
      </trkpt>
      <trkpt lat="48.77531" lon="7.31416">
        <ele>335.53618663046</ele>
        <time>2021-07-08T15:06:13.589Z</time>
      </trkpt>
      <trkpt lat="48.77519" lon="7.31406">
        <ele>336.91854005562</ele>
        <time>2021-07-08T15:06:17.732Z</time>
      </trkpt>
      <trkpt lat="48.77498" lon="7.31393">
        <ele>338.44720464801</ele>
        <time>2021-07-08T15:06:21.883Z</time>
      </trkpt>
      <trkpt lat="48.77479" lon="7.31384">
        <ele>340.03171913214</ele>
        <time>2021-07-08T15:06:26.041Z</time>
      </trkpt>
      <trkpt lat="48.77471" lon="7.31382">
        <ele>341.60007409054</ele>
        <time>2021-07-08T15:06:30.201Z</time>
      </trkpt>
      <trkpt lat="48.77456" lon="7.31379">
        <ele>343.25314520003</ele>
        <time>2021-07-08T15:06:34.366Z</time>
      </trkpt>
      <trkpt lat="48.77375" lon="7.31375">
        <ele>345.21291915305</ele>
        <time>2021-07-08T15:06:38.558Z</time>
      </trkpt>
      <trkpt lat="48.77328" lon="7.31372">
        <ele>347.04603887702</ele>
        <time>2021-07-08T15:06:42.766Z</time>
      </trkpt>
      <trkpt lat="48.77252" lon="7.31369">
        <ele>348.9325669555</ele>
        <time>2021-07-08T15:06:46.999Z</time>
      </trkpt>
      <trkpt lat="48.77198" lon="7.31367">
        <ele>350.5757334697</ele>
        <time>2021-07-08T15:06:51.251Z</time>
      </trkpt>
      <trkpt lat="48.77153" lon="7.31367">
        <ele>352.3013071976</ele>
        <time>2021-07-08T15:06:55.518Z</time>
      </trkpt>
      <trkpt lat="48.77134" lon="7.31368">
        <ele>353.89650309288</ele>
        <time>2021-07-08T15:06:59.791Z</time>
      </trkpt>
      <trkpt lat="48.77133" lon="7.31368">
        <ele>355.38620764164</ele>
        <time>2021-07-08T15:07:04.064Z</time>
      </trkpt>
      <trkpt lat="48.77128" lon="7.31368">
        <ele>356.84369622085</ele>
        <time>2021-07-08T15:07:08.339Z</time>
      </trkpt>
      <trkpt lat="48.77123" lon="7.31369">
        <ele>358.25690745022</ele>
        <time>2021-07-08T15:07:12.616Z</time>
      </trkpt>
      <trkpt lat="48.77123" lon="7.31368">
        <ele>359.61256297668</ele>
        <time>2021-07-08T15:07:16.893Z</time>
      </trkpt>
      <trkpt lat="48.7712" lon="7.31369">
        <ele>360.93431451188</ele>
        <time>2021-07-08T15:07:21.171Z</time>
      </trkpt>
      <trkpt lat="48.77117" lon="7.31369">
        <ele>362.21653660666</ele>
        <time>2021-07-08T15:07:25.450Z</time>
      </trkpt>
      <trkpt lat="48.771" lon="7.3137">
        <ele>363.51614105911</ele>
        <time>2021-07-08T15:07:29.734Z</time>
      </trkpt>
      <trkpt lat="48.77085" lon="7.31371">
        <ele>364.81219735891</ele>
        <time>2021-07-08T15:07:34.023Z</time>
      </trkpt>
      <trkpt lat="48.77067" lon="7.31375">
        <ele>366.09529963504</ele>
        <time>2021-07-08T15:07:38.319Z</time>
      </trkpt>
      <trkpt lat="48.77056" lon="7.31379">
        <ele>367.28727479128</ele>
        <time>2021-07-08T15:07:42.618Z</time>
      </trkpt>
      <trkpt lat="48.77047" lon="7.31381">
        <ele>368.44555517449</ele>
        <time>2021-07-08T15:07:46.920Z</time>
      </trkpt>
      <trkpt lat="48.77031" lon="7.31389">
        <ele>369.60757987717</ele>
        <time>2021-07-08T15:07:51.228Z</time>
      </trkpt>
      <trkpt lat="48.77019" lon="7.31397">
        <ele>370.73261739821</ele>
        <time>2021-07-08T15:07:55.540Z</time>
      </trkpt>
      <trkpt lat="48.77011" lon="7.31401">
        <ele>371.83007412696</ele>
        <time>2021-07-08T15:07:59.855Z</time>
      </trkpt>
      <trkpt lat="48.76991" lon="7.31417">
        <ele>372.94964826653</ele>
        <time>2021-07-08T15:08:04.178Z</time>
      </trkpt>
      <trkpt lat="48.76965" lon="7.31439">
        <ele>374.14944704407</ele>
        <time>2021-07-08T15:08:08.511Z</time>
      </trkpt>
      <trkpt lat="48.76944" lon="7.31458">
        <ele>375.1871482714</ele>
        <time>2021-07-08T15:08:12.852Z</time>
      </trkpt>
      <trkpt lat="48.76914" lon="7.31488">
        <ele>376.18689813937</ele>
        <time>2021-07-08T15:08:17.205Z</time>
      </trkpt>
      <trkpt lat="48.76884" lon="7.31524">
        <ele>377.22690510844</ele>
        <time>2021-07-08T15:08:21.571Z</time>
      </trkpt>
      <trkpt lat="48.76862" lon="7.31551">
        <ele>378.34304468655</ele>
        <time>2021-07-08T15:08:25.946Z</time>
      </trkpt>
      <trkpt lat="48.76816" lon="7.31614">
        <ele>379.42353114994</ele>
        <time>2021-07-08T15:08:30.342Z</time>
      </trkpt>
      <trkpt lat="48.76796" lon="7.31641">
        <ele>380.5556734961</ele>
        <time>2021-07-08T15:08:34.747Z</time>
      </trkpt>
      <trkpt lat="48.76779" lon="7.31666">
        <ele>381.70924520506</ele>
        <time>2021-07-08T15:08:39.160Z</time>
      </trkpt>
      <trkpt lat="48.76766" lon="7.31691">
        <ele>382.9683419759</ele>
        <time>2021-07-08T15:08:43.580Z</time>
      </trkpt>
      <trkpt lat="48.76761" lon="7.31698">
        <ele>384.08713124445</ele>
        <time>2021-07-08T15:08:48.002Z</time>
      </trkpt>
      <trkpt lat="48.76758" lon="7.31702">
        <ele>385.18011860119</ele>
        <time>2021-07-08T15:08:52.425Z</time>
      </trkpt>
      <trkpt lat="48.76756" lon="7.31707">
        <ele>386.26931088009</ele>
        <time>2021-07-08T15:08:56.850Z</time>
      </trkpt>
      <trkpt lat="48.76727" lon="7.31765">
        <ele>387.60575208804</ele>
        <time>2021-07-08T15:09:01.291Z</time>
      </trkpt>
      <trkpt lat="48.76726" lon="7.31767">
        <ele>388.62528824765</ele>
        <time>2021-07-08T15:09:05.732Z</time>
      </trkpt>
      <trkpt lat="48.76726" lon="7.31774">
        <ele>389.6341515475</ele>
        <time>2021-07-08T15:09:10.175Z</time>
      </trkpt>
      <trkpt lat="48.76728" lon="7.31788">
        <ele>390.63718160745</ele>
        <time>2021-07-08T15:09:14.621Z</time>
      </trkpt>
      <trkpt lat="48.76732" lon="7.31848">
        <ele>391.83789146793</ele>
        <time>2021-07-08T15:09:19.080Z</time>
      </trkpt>
      <trkpt lat="48.76733" lon="7.31883">
        <ele>392.82407666651</ele>
        <time>2021-07-08T15:09:23.547Z</time>
      </trkpt>
      <trkpt lat="48.76735" lon="7.31923">
        <ele>393.74493426652</ele>
        <time>2021-07-08T15:09:28.023Z</time>
      </trkpt>
      <trkpt lat="48.76735" lon="7.31934">
        <ele>394.47784908587</ele>
        <time>2021-07-08T15:09:32.501Z</time>
      </trkpt>
      <trkpt lat="48.76689" lon="7.32031">
        <ele>395.12648247407</ele>
        <time>2021-07-08T15:09:37.005Z</time>
      </trkpt>
      <trkpt lat="48.76685" lon="7.32039">
        <ele>395.6863925487</ele>
        <time>2021-07-08T15:09:41.512Z</time>
      </trkpt>
      <trkpt lat="48.76663" lon="7.32076">
        <ele>396.12717767914</ele>
        <time>2021-07-08T15:09:46.030Z</time>
      </trkpt>
      <trkpt lat="48.76661" lon="7.32075">
        <ele>396.60715190463</ele>
        <time>2021-07-08T15:09:50.548Z</time>
      </trkpt>
      <trkpt lat="48.7665" lon="7.32066">
        <ele>397.04689238082</ele>
        <time>2021-07-08T15:09:55.070Z</time>
      </trkpt>
      <trkpt lat="48.76631" lon="7.32051">
        <ele>397.45245255086</ele>
        <time>2021-07-08T15:09:59.600Z</time>
      </trkpt>
      <trkpt lat="48.76617" lon="7.32038">
        <ele>397.82221770982</ele>
        <time>2021-07-08T15:10:04.135Z</time>
      </trkpt>
      <trkpt lat="48.76612" lon="7.32031">
        <ele>398.16122009885</ele>
        <time>2021-07-08T15:10:08.672Z</time>
      </trkpt>
      <trkpt lat="48.76603" lon="7.3202">
        <ele>398.48250891915</ele>
        <time>2021-07-08T15:10:13.213Z</time>
      </trkpt>
      <trkpt lat="48.76588" lon="7.32005">
        <ele>398.76283350027</ele>
        <time>2021-07-08T15:10:17.760Z</time>
      </trkpt>
      <trkpt lat="48.76585" lon="7.32003">
        <ele>399.06843379463</ele>
        <time>2021-07-08T15:10:22.308Z</time>
      </trkpt>
      <trkpt lat="48.76583" lon="7.32002">
        <ele>399.38487171377</ele>
        <time>2021-07-08T15:10:26.857Z</time>
      </trkpt>
      <trkpt lat="48.76578" lon="7.32002">
        <ele>399.71149726534</ele>
        <time>2021-07-08T15:10:31.408Z</time>
      </trkpt>
      <trkpt lat="48.76571" lon="7.32003">
        <ele>400.05727145229</ele>
        <time>2021-07-08T15:10:35.961Z</time>
      </trkpt>
      <trkpt lat="48.76564" lon="7.32006">
        <ele>400.43234305253</ele>
        <time>2021-07-08T15:10:40.516Z</time>
      </trkpt>
      <trkpt lat="48.76553" lon="7.32012">
        <ele>400.83342134863</ele>
        <time>2021-07-08T15:10:45.075Z</time>
      </trkpt>
      <trkpt lat="48.76547" lon="7.32004">
        <ele>401.28261301905</ele>
        <time>2021-07-08T15:10:49.637Z</time>
      </trkpt>
      <trkpt lat="48.76543" lon="7.31996">
        <ele>401.77639155746</ele>
        <time>2021-07-08T15:10:54.201Z</time>
      </trkpt>
      <trkpt lat="48.7654" lon="7.31991">
        <ele>402.3148212808</ele>
        <time>2021-07-08T15:10:58.767Z</time>
      </trkpt>
      <trkpt lat="48.7655" lon="7.31977">
        <ele>402.92400288916</ele>
        <time>2021-07-08T15:11:03.337Z</time>
      </trkpt>
      <trkpt lat="48.76541" lon="7.31965">
        <ele>403.52645317982</ele>
        <time>2021-07-08T15:11:07.911Z</time>
      </trkpt>
      <trkpt lat="48.76515" lon="7.31919">
        <ele>404.19099344197</ele>
        <time>2021-07-08T15:11:12.499Z</time>
      </trkpt>
      <trkpt lat="48.76498" lon="7.31889">
        <ele>404.91561593323</ele>
        <time>2021-07-08T15:11:17.095Z</time>
      </trkpt>
      <trkpt lat="48.76478" lon="7.31857">
        <ele>405.66539545486</ele>
        <time>2021-07-08T15:11:21.701Z</time>
      </trkpt>
      <trkpt lat="48.76463" lon="7.31868">
        <ele>406.40665967816</ele>
        <time>2021-07-08T15:11:26.313Z</time>
      </trkpt>
      <trkpt lat="48.76458" lon="7.31876">
        <ele>407.08805508458</ele>
        <time>2021-07-08T15:11:30.927Z</time>
      </trkpt>
      <trkpt lat="48.76452" lon="7.31889">
        <ele>407.74690119175</ele>
        <time>2021-07-08T15:11:35.545Z</time>
      </trkpt>
      <trkpt lat="48.76428" lon="7.31911">
        <ele>408.50032066684</ele>
        <time>2021-07-08T15:11:40.172Z</time>
      </trkpt>
      <trkpt lat="48.76416" lon="7.31929">
        <ele>409.08482377139</ele>
        <time>2021-07-08T15:11:44.805Z</time>
      </trkpt>
      <trkpt lat="48.76371" lon="7.31985">
        <ele>409.91938406329</ele>
        <time>2021-07-08T15:11:49.457Z</time>
      </trkpt>
      <trkpt lat="48.76359" lon="7.32006">
        <ele>410.32068106413</ele>
        <time>2021-07-08T15:11:54.115Z</time>
      </trkpt>
      <trkpt lat="48.76351" lon="7.32019">
        <ele>410.51210816483</ele>
        <time>2021-07-08T15:11:58.777Z</time>
      </trkpt>
      <trkpt lat="48.76327" lon="7.32054">
        <ele>410.51866687021</ele>
        <time>2021-07-08T15:12:03.450Z</time>
      </trkpt>
      <trkpt lat="48.76326" lon="7.32055">
        <ele>410.15073876125</ele>
        <time>2021-07-08T15:12:08.124Z</time>
      </trkpt>
      <trkpt lat="48.76326" lon="7.32055">
        <ele>409.75175345228</ele>
        <time>2021-07-08T15:12:12.798Z</time>
      </trkpt>
      <trkpt lat="48.763" lon="7.32091">
        <ele>409.15686882576</ele>
        <time>2021-07-08T15:12:17.483Z</time>
      </trkpt>
      <trkpt lat="48.76282" lon="7.32114">
        <ele>408.46253096239</ele>
        <time>2021-07-08T15:12:22.176Z</time>
      </trkpt>
      <trkpt lat="48.76255" lon="7.32138">
        <ele>407.57970003235</ele>
        <time>2021-07-08T15:12:26.880Z</time>
      </trkpt>
      <trkpt lat="48.76221" lon="7.32173">
        <ele>406.45065303245</ele>
        <time>2021-07-08T15:12:31.597Z</time>
      </trkpt>
      <trkpt lat="48.76124" lon="7.32184">
        <ele>404.93525629373</ele>
        <time>2021-07-08T15:12:36.347Z</time>
      </trkpt>
      <trkpt lat="48.7611" lon="7.32204">
        <ele>403.78776547925</ele>
        <time>2021-07-08T15:12:41.103Z</time>
      </trkpt>
      <trkpt lat="48.76105" lon="7.32207">
        <ele>402.66993124874</ele>
        <time>2021-07-08T15:12:45.861Z</time>
      </trkpt>
      <trkpt lat="48.76102" lon="7.32209">
        <ele>401.52991014459</ele>
        <time>2021-07-08T15:12:50.620Z</time>
      </trkpt>
      <trkpt lat="48.76096" lon="7.32215">
        <ele>400.34985411563</ele>
        <time>2021-07-08T15:12:55.382Z</time>
      </trkpt>
      <trkpt lat="48.76068" lon="7.32243">
        <ele>399.05744350286</ele>
        <time>2021-07-08T15:13:00.155Z</time>
      </trkpt>
      <trkpt lat="48.76056" lon="7.32252">
        <ele>397.92738638011</ele>
        <time>2021-07-08T15:13:04.932Z</time>
      </trkpt>
      <trkpt lat="48.7604" lon="7.32258">
        <ele>396.81910032382</ele>
        <time>2021-07-08T15:13:09.715Z</time>
      </trkpt>
      <trkpt lat="48.76027" lon="7.32258">
        <ele>395.77735312399</ele>
        <time>2021-07-08T15:13:14.502Z</time>
      </trkpt>
      <trkpt lat="48.76023" lon="7.32259">
        <ele>394.84577500057</ele>
        <time>2021-07-08T15:13:19.290Z</time>
      </trkpt>
      <trkpt lat="48.76021" lon="7.32259">
        <ele>393.9887152535</ele>
        <time>2021-07-08T15:13:24.079Z</time>
      </trkpt>
      <trkpt lat="48.76012" lon="7.3227">
        <ele>393.22489040164</ele>
        <time>2021-07-08T15:13:28.872Z</time>
      </trkpt>
      <trkpt lat="48.76003" lon="7.32281">
        <ele>392.54496654698</ele>
        <time>2021-07-08T15:13:33.669Z</time>
      </trkpt>
      <trkpt lat="48.75997" lon="7.32291">
        <ele>391.95994027678</ele>
        <time>2021-07-08T15:13:38.469Z</time>
      </trkpt>
      <trkpt lat="48.75993" lon="7.32303">
        <ele>391.47883132202</ele>
        <time>2021-07-08T15:13:43.272Z</time>
      </trkpt>
      <trkpt lat="48.75991" lon="7.32313">
        <ele>391.07770887297</ele>
        <time>2021-07-08T15:13:48.077Z</time>
      </trkpt>
      <trkpt lat="48.75991" lon="7.3232">
        <ele>390.76260087733</ele>
        <time>2021-07-08T15:13:52.884Z</time>
      </trkpt>
      <trkpt lat="48.75991" lon="7.32328">
        <ele>390.53579278315</ele>
        <time>2021-07-08T15:13:57.692Z</time>
      </trkpt>
      <trkpt lat="48.75992" lon="7.32342">
        <ele>390.42461155854</ele>
        <time>2021-07-08T15:14:02.503Z</time>
      </trkpt>
      <trkpt lat="48.75992" lon="7.32346">
        <ele>390.34845280267</ele>
        <time>2021-07-08T15:14:07.315Z</time>
      </trkpt>
      <trkpt lat="48.75986" lon="7.32363">
        <ele>390.37336999052</ele>
        <time>2021-07-08T15:14:12.132Z</time>
      </trkpt>
      <trkpt lat="48.75967" lon="7.32405">
        <ele>390.48114028805</ele>
        <time>2021-07-08T15:14:16.960Z</time>
      </trkpt>
      <trkpt lat="48.7596" lon="7.32419">
        <ele>390.61162175322</ele>
        <time>2021-07-08T15:14:21.792Z</time>
      </trkpt>
      <trkpt lat="48.75953" lon="7.3243">
        <ele>390.79372566783</ele>
        <time>2021-07-08T15:14:26.627Z</time>
      </trkpt>
      <trkpt lat="48.75917" lon="7.32471">
        <ele>391.02728672289</ele>
        <time>2021-07-08T15:14:31.477Z</time>
      </trkpt>
      <trkpt lat="48.75905" lon="7.32488">
        <ele>391.36614242338</ele>
        <time>2021-07-08T15:14:36.333Z</time>
      </trkpt>
      <trkpt lat="48.75897" lon="7.32502">
        <ele>391.777824531</ele>
        <time>2021-07-08T15:14:41.193Z</time>
      </trkpt>
      <trkpt lat="48.75889" lon="7.32512">
        <ele>392.24544273983</ele>
        <time>2021-07-08T15:14:46.056Z</time>
      </trkpt>
      <trkpt lat="48.75864" lon="7.32537">
        <ele>392.80394990682</ele>
        <time>2021-07-08T15:14:50.929Z</time>
      </trkpt>
      <trkpt lat="48.75856" lon="7.32546">
        <ele>393.42477004792</ele>
        <time>2021-07-08T15:14:55.805Z</time>
      </trkpt>
      <trkpt lat="48.75839" lon="7.32568">
        <ele>394.16492452001</ele>
        <time>2021-07-08T15:15:00.689Z</time>
      </trkpt>
      <trkpt lat="48.75833" lon="7.32577">
        <ele>394.91739081541</ele>
        <time>2021-07-08T15:15:05.576Z</time>
      </trkpt>
      <trkpt lat="48.75825" lon="7.32584">
        <ele>395.71664501755</ele>
        <time>2021-07-08T15:15:10.466Z</time>
      </trkpt>
      <trkpt lat="48.75806" lon="7.32605">
        <ele>396.57629878937</ele>
        <time>2021-07-08T15:15:15.364Z</time>
      </trkpt>
      <trkpt lat="48.75792" lon="7.32628">
        <ele>397.50847337547</ele>
        <time>2021-07-08T15:15:20.269Z</time>
      </trkpt>
      <trkpt lat="48.75783" lon="7.32639">
        <ele>398.49312796332</ele>
        <time>2021-07-08T15:15:25.177Z</time>
      </trkpt>
      <trkpt lat="48.75777" lon="7.32645">
        <ele>399.53583804525</ele>
        <time>2021-07-08T15:15:30.088Z</time>
      </trkpt>
      <trkpt lat="48.75769" lon="7.32651">
        <ele>400.63601890369</ele>
        <time>2021-07-08T15:15:35.002Z</time>
      </trkpt>
      <trkpt lat="48.75758" lon="7.32658">
        <ele>401.81033217318</ele>
        <time>2021-07-08T15:15:39.920Z</time>
      </trkpt>
      <trkpt lat="48.75737" lon="7.32671">
        <ele>403.08265985156</ele>
        <time>2021-07-08T15:15:44.845Z</time>
      </trkpt>
      <trkpt lat="48.75699" lon="7.32686">
        <ele>404.4343464795</ele>
        <time>2021-07-08T15:15:49.783Z</time>
      </trkpt>
      <trkpt lat="48.75691" lon="7.32687">
        <ele>405.75078924154</ele>
        <time>2021-07-08T15:15:54.724Z</time>
      </trkpt>
      <trkpt lat="48.75683" lon="7.32686">
        <ele>407.09252732656</ele>
        <time>2021-07-08T15:15:59.668Z</time>
      </trkpt>
      <trkpt lat="48.75668" lon="7.3268">
        <ele>408.46301236552</ele>
        <time>2021-07-08T15:16:04.617Z</time>
      </trkpt>
      <trkpt lat="48.75664" lon="7.3268">
        <ele>409.82523976935</ele>
        <time>2021-07-08T15:16:09.567Z</time>
      </trkpt>
      <trkpt lat="48.75659" lon="7.32681">
        <ele>411.19122150381</ele>
        <time>2021-07-08T15:16:14.519Z</time>
      </trkpt>
      <trkpt lat="48.75658" lon="7.32681">
        <ele>412.52349594974</ele>
        <time>2021-07-08T15:16:19.471Z</time>
      </trkpt>
      <trkpt lat="48.75649" lon="7.32687">
        <ele>413.87209199667</ele>
        <time>2021-07-08T15:16:24.427Z</time>
      </trkpt>
      <trkpt lat="48.75628" lon="7.32738">
        <ele>415.36634932231</ele>
        <time>2021-07-08T15:16:29.396Z</time>
      </trkpt>
      <trkpt lat="48.75614" lon="7.32767">
        <ele>416.71204332647</ele>
        <time>2021-07-08T15:16:34.373Z</time>
      </trkpt>
      <trkpt lat="48.75606" lon="7.32782">
        <ele>417.98603825</ele>
        <time>2021-07-08T15:16:39.354Z</time>
      </trkpt>
      <trkpt lat="48.75591" lon="7.32802">
        <ele>419.22337994899</ele>
        <time>2021-07-08T15:16:44.342Z</time>
      </trkpt>
      <trkpt lat="48.75558" lon="7.32844">
        <ele>420.41215491949</ele>
        <time>2021-07-08T15:16:49.344Z</time>
      </trkpt>
      <trkpt lat="48.75515" lon="7.3291">
        <ele>421.1137264539</ele>
        <time>2021-07-08T15:16:54.367Z</time>
      </trkpt>
      <trkpt lat="48.755" lon="7.32945">
        <ele>421.4145351486</ele>
        <time>2021-07-08T15:16:59.399Z</time>
      </trkpt>
      <trkpt lat="48.75502" lon="7.32949">
        <ele>421.7411249289</ele>
        <time>2021-07-08T15:17:04.432Z</time>
      </trkpt>
      <trkpt lat="48.75506" lon="7.32961">
        <ele>421.86250712424</ele>
        <time>2021-07-08T15:17:09.468Z</time>
      </trkpt>
      <trkpt lat="48.75481" lon="7.32972">
        <ele>421.71424031802</ele>
        <time>2021-07-08T15:17:14.512Z</time>
      </trkpt>
      <trkpt lat="48.75429" lon="7.32986">
        <ele>421.44371727687</ele>
        <time>2021-07-08T15:17:19.574Z</time>
      </trkpt>
      <trkpt lat="48.75412" lon="7.32992">
        <ele>421.07069942313</ele>
        <time>2021-07-08T15:17:24.642Z</time>
      </trkpt>
      <trkpt lat="48.75382" lon="7.33048">
        <ele>420.47238978467</ele>
        <time>2021-07-08T15:17:29.726Z</time>
      </trkpt>
      <trkpt lat="48.75366" lon="7.33078">
        <ele>419.69885704857</ele>
        <time>2021-07-08T15:17:34.818Z</time>
      </trkpt>
      <trkpt lat="48.7532" lon="7.3312">
        <ele>418.44947266705</ele>
        <time>2021-07-08T15:17:39.928Z</time>
      </trkpt>
      <trkpt lat="48.75299" lon="7.33159">
        <ele>417.0698242456</ele>
        <time>2021-07-08T15:17:45.049Z</time>
      </trkpt>
      <trkpt lat="48.75294" lon="7.33167">
        <ele>415.77435755112</ele>
        <time>2021-07-08T15:17:50.173Z</time>
      </trkpt>
      <trkpt lat="48.75287" lon="7.33179">
        <ele>414.32722654677</ele>
        <time>2021-07-08T15:17:55.300Z</time>
      </trkpt>
      <trkpt lat="48.75281" lon="7.33193">
        <ele>412.72455951484</ele>
        <time>2021-07-08T15:18:00.431Z</time>
      </trkpt>
      <trkpt lat="48.75269" lon="7.33223">
        <ele>410.88389671747</ele>
        <time>2021-07-08T15:18:05.570Z</time>
      </trkpt>
      <trkpt lat="48.75267" lon="7.33241">
        <ele>409.05485626296</ele>
        <time>2021-07-08T15:18:10.713Z</time>
      </trkpt>
      <trkpt lat="48.75265" lon="7.33266">
        <ele>407.08659656049</ele>
        <time>2021-07-08T15:18:15.861Z</time>
      </trkpt>
      <trkpt lat="48.75261" lon="7.33275">
        <ele>405.1079562802</ele>
        <time>2021-07-08T15:18:21.012Z</time>
      </trkpt>
      <trkpt lat="48.75251" lon="7.33287">
        <ele>402.97708606797</ele>
        <time>2021-07-08T15:18:26.167Z</time>
      </trkpt>
      <trkpt lat="48.75235" lon="7.33309">
        <ele>400.63243129224</ele>
        <time>2021-07-08T15:18:31.329Z</time>
      </trkpt>
      <trkpt lat="48.75226" lon="7.3332">
        <ele>398.33758163764</ele>
        <time>2021-07-08T15:18:36.495Z</time>
      </trkpt>
      <trkpt lat="48.75221" lon="7.33325">
        <ele>396.06940193587</ele>
        <time>2021-07-08T15:18:41.663Z</time>
      </trkpt>
      <trkpt lat="48.75215" lon="7.33327">
        <ele>393.74403474258</ele>
        <time>2021-07-08T15:18:46.833Z</time>
      </trkpt>
      <trkpt lat="48.7521" lon="7.33326">
        <ele>391.37916066529</ele>
        <time>2021-07-08T15:18:52.005Z</time>
      </trkpt>
      <trkpt lat="48.75206" lon="7.33324">
        <ele>388.95115079245</ele>
        <time>2021-07-08T15:18:57.178Z</time>
      </trkpt>
      <trkpt lat="48.75192" lon="7.33306">
        <ele>386.43428413393</ele>
        <time>2021-07-08T15:19:02.357Z</time>
      </trkpt>
      <trkpt lat="48.75188" lon="7.33304">
        <ele>383.80839352938</ele>
        <time>2021-07-08T15:19:07.538Z</time>
      </trkpt>
      <trkpt lat="48.75183" lon="7.33303">
        <ele>381.01476923106</ele>
        <time>2021-07-08T15:19:12.720Z</time>
      </trkpt>
      <trkpt lat="48.75171" lon="7.33307">
        <ele>377.9227312157</ele>
        <time>2021-07-08T15:19:17.906Z</time>
      </trkpt>
      <trkpt lat="48.75174" lon="7.33313">
        <ele>374.95600179937</ele>
        <time>2021-07-08T15:19:23.094Z</time>
      </trkpt>
      <trkpt lat="48.7518" lon="7.33326">
        <ele>371.82656164708</ele>
        <time>2021-07-08T15:19:28.286Z</time>
      </trkpt>
      <trkpt lat="48.75185" lon="7.33335">
        <ele>368.58696349755</ele>
        <time>2021-07-08T15:19:33.480Z</time>
      </trkpt>
      <trkpt lat="48.75184" lon="7.33337">
        <ele>365.09650307392</ele>
        <time>2021-07-08T15:19:38.675Z</time>
      </trkpt>
      <trkpt lat="48.75169" lon="7.33359">
        <ele>361.06258826775</ele>
        <time>2021-07-08T15:19:43.877Z</time>
      </trkpt>
      <trkpt lat="48.75155" lon="7.33431">
        <ele>356.73967137132</ele>
        <time>2021-07-08T15:19:49.095Z</time>
      </trkpt>
      <trkpt lat="48.75146" lon="7.33473">
        <ele>352.67934932386</ele>
        <time>2021-07-08T15:19:54.323Z</time>
      </trkpt>
      <trkpt lat="48.75123" lon="7.33547">
        <ele>348.14286593631</ele>
        <time>2021-07-08T15:19:59.569Z</time>
      </trkpt>
      <trkpt lat="48.75082" lon="7.33647">
        <ele>343.25465902191</ele>
        <time>2021-07-08T15:20:04.841Z</time>
      </trkpt>
      <trkpt lat="48.75069" lon="7.33708">
        <ele>338.78570722309</ele>
        <time>2021-07-08T15:20:10.127Z</time>
      </trkpt>
      <trkpt lat="48.75042" lon="7.33745">
        <ele>334.09998607332</ele>
        <time>2021-07-08T15:20:15.425Z</time>
      </trkpt>
      <trkpt lat="48.75025" lon="7.3376">
        <ele>329.24900775872</ele>
        <time>2021-07-08T15:20:20.730Z</time>
      </trkpt>
      <trkpt lat="48.74991" lon="7.33791">
        <ele>324.08341585951</ele>
        <time>2021-07-08T15:20:26.048Z</time>
      </trkpt>
      <trkpt lat="48.74953" lon="7.33868">
        <ele>318.99667391674</ele>
        <time>2021-07-08T15:20:31.387Z</time>
      </trkpt>
      <trkpt lat="48.74943" lon="7.33908">
        <ele>314.17999623864</ele>
        <time>2021-07-08T15:20:36.736Z</time>
      </trkpt>
      <trkpt lat="48.74922" lon="7.33934">
        <ele>308.93057520442</ele>
        <time>2021-07-08T15:20:42.094Z</time>
      </trkpt>
      <trkpt lat="48.74921" lon="7.33939">
        <ele>303.96766437414</ele>
        <time>2021-07-08T15:20:47.453Z</time>
      </trkpt>
      <trkpt lat="48.7489" lon="7.34039">
        <ele>298.49071772508</ele>
        <time>2021-07-08T15:20:52.836Z</time>
      </trkpt>
      <trkpt lat="48.74862" lon="7.34089">
        <ele>292.94460565219</ele>
        <time>2021-07-08T15:20:58.234Z</time>
      </trkpt>
      <trkpt lat="48.74843" lon="7.34204">
        <ele>287.57864461503</ele>
        <time>2021-07-08T15:21:03.658Z</time>
      </trkpt>
      <trkpt lat="48.74833" lon="7.34229">
        <ele>282.47957473429</ele>
        <time>2021-07-08T15:21:09.088Z</time>
      </trkpt>
      <trkpt lat="48.74812" lon="7.34307">
        <ele>277.46964026315</ele>
        <time>2021-07-08T15:21:14.537Z</time>
      </trkpt>
      <trkpt lat="48.74794" lon="7.34224">
        <ele>272.11691502391</ele>
        <time>2021-07-08T15:21:20.005Z</time>
      </trkpt>
      <trkpt lat="48.74784" lon="7.34253">
        <ele>267.35718099405</ele>
        <time>2021-07-08T15:21:25.480Z</time>
      </trkpt>
      <trkpt lat="48.74746" lon="7.34312">
        <ele>262.49663452906</ele>
        <time>2021-07-08T15:21:30.974Z</time>
      </trkpt>
      <trkpt lat="48.74748" lon="7.34262">
        <ele>257.86772684154</ele>
        <time>2021-07-08T15:21:36.479Z</time>
      </trkpt>
      <trkpt lat="48.74738" lon="7.34179">
        <ele>253.22212369903</ele>
        <time>2021-07-08T15:21:42.002Z</time>
      </trkpt>
      <trkpt lat="48.74723" lon="7.34218">
        <ele>249.00853772921</ele>
        <time>2021-07-08T15:21:47.535Z</time>
      </trkpt>
      <trkpt lat="48.74707" lon="7.34238">
        <ele>244.88831746822</ele>
        <time>2021-07-08T15:21:53.075Z</time>
      </trkpt>
      <trkpt lat="48.74705" lon="7.3424">
        <ele>241.16139531138</ele>
        <time>2021-07-08T15:21:58.616Z</time>
      </trkpt>
      <trkpt lat="48.74656" lon="7.34282">
        <ele>237.54206528461</ele>
        <time>2021-07-08T15:22:04.176Z</time>
      </trkpt>
      <trkpt lat="48.74639" lon="7.34297">
        <ele>234.10662177809</ele>
        <time>2021-07-08T15:22:09.742Z</time>
      </trkpt>
      <trkpt lat="48.74611" lon="7.34335">
        <ele>230.4640826956</ele>
        <time>2021-07-08T15:22:15.321Z</time>
      </trkpt>
      <trkpt lat="48.7461" lon="7.34336">
        <ele>227.47753013124</ele>
        <time>2021-07-08T15:22:20.900Z</time>
      </trkpt>
      <trkpt lat="48.746" lon="7.34351">
        <ele>224.64706508081</ele>
        <time>2021-07-08T15:22:26.484Z</time>
      </trkpt>
      <trkpt lat="48.74598" lon="7.34353">
        <ele>222.01423389569</ele>
        <time>2021-07-08T15:22:32.069Z</time>
      </trkpt>
      <trkpt lat="48.74581" lon="7.34384">
        <ele>219.79913197971</ele>
        <time>2021-07-08T15:22:37.663Z</time>
      </trkpt>
      <trkpt lat="48.74566" lon="7.34408">
        <ele>217.19913226884</ele>
        <time>2021-07-08T15:22:43.264Z</time>
      </trkpt>
      <trkpt lat="48.74535" lon="7.34499">
        <ele>214.32385603562</ele>
        <time>2021-07-08T15:22:48.888Z</time>
      </trkpt>
      <trkpt lat="48.7453" lon="7.34521">
        <ele>212.06865614706</ele>
        <time>2021-07-08T15:22:54.517Z</time>
      </trkpt>
      <trkpt lat="48.74524" lon="7.34556">
        <ele>209.92207678479</ele>
        <time>2021-07-08T15:23:00.154Z</time>
      </trkpt>
      <trkpt lat="48.74523" lon="7.34564">
        <ele>208.04975591221</ele>
        <time>2021-07-08T15:23:05.792Z</time>
      </trkpt>
      <trkpt lat="48.74522" lon="7.34577">
        <ele>206.29174350716</ele>
        <time>2021-07-08T15:23:11.433Z</time>
      </trkpt>
      <trkpt lat="48.74521" lon="7.34598">
        <ele>204.64751315825</ele>
        <time>2021-07-08T15:23:17.079Z</time>
      </trkpt>
      <trkpt lat="48.74522" lon="7.34615">
        <ele>203.15488725423</ele>
        <time>2021-07-08T15:23:22.729Z</time>
      </trkpt>
      <trkpt lat="48.74523" lon="7.3463">
        <ele>201.77727581177</ele>
        <time>2021-07-08T15:23:28.382Z</time>
      </trkpt>
      <trkpt lat="48.74523" lon="7.3465">
        <ele>200.49515174367</ele>
        <time>2021-07-08T15:23:34.040Z</time>
      </trkpt>
      <trkpt lat="48.7452" lon="7.34734">
        <ele>199.16838098177</ele>
        <time>2021-07-08T15:23:39.716Z</time>
      </trkpt>
      <trkpt lat="48.74516" lon="7.34823">
        <ele>197.79515452219</ele>
        <time>2021-07-08T15:23:45.412Z</time>
      </trkpt>
      <trkpt lat="48.74509" lon="7.34954">
        <ele>196.5260734124</ele>
        <time>2021-07-08T15:23:51.137Z</time>
      </trkpt>
      <trkpt lat="48.74507" lon="7.35005">
        <ele>195.66312786691</ele>
        <time>2021-07-08T15:23:56.873Z</time>
      </trkpt>
      <trkpt lat="48.74507" lon="7.35024">
        <ele>195.00723084567</ele>
        <time>2021-07-08T15:24:02.613Z</time>
      </trkpt>
      <trkpt lat="48.74507" lon="7.35033">
        <ele>194.50009649085</ele>
        <time>2021-07-08T15:24:08.355Z</time>
      </trkpt>
      <trkpt lat="48.74519" lon="7.35058">
        <ele>194.13241858526</ele>
        <time>2021-07-08T15:24:14.104Z</time>
      </trkpt>
      <trkpt lat="48.74524" lon="7.35053">
        <ele>193.91559860756</ele>
        <time>2021-07-08T15:24:19.855Z</time>
      </trkpt>
      <trkpt lat="48.7453" lon="7.35042">
        <ele>193.82264842029</ele>
        <time>2021-07-08T15:24:25.609Z</time>
      </trkpt>
      <trkpt lat="48.74534" lon="7.35008">
        <ele>193.86530646636</ele>
        <time>2021-07-08T15:24:31.371Z</time>
      </trkpt>
      <trkpt lat="48.74538" lon="7.34995">
        <ele>193.9613061967</ele>
        <time>2021-07-08T15:24:37.136Z</time>
      </trkpt>
      <trkpt lat="48.74548" lon="7.34984">
        <ele>194.14548330236</ele>
        <time>2021-07-08T15:24:42.905Z</time>
      </trkpt>
      <trkpt lat="48.74551" lon="7.34984">
        <ele>194.32079900708</ele>
        <time>2021-07-08T15:24:48.675Z</time>
      </trkpt>
      <trkpt lat="48.74552" lon="7.34985">
        <ele>194.53154395314</ele>
        <time>2021-07-08T15:24:54.445Z</time>
      </trkpt>
      <trkpt lat="48.74566" lon="7.35034">
        <ele>194.71528959646</ele>
        <time>2021-07-08T15:25:00.227Z</time>
      </trkpt>
      <trkpt lat="48.74594" lon="7.35064">
        <ele>195.07057682759</ele>
        <time>2021-07-08T15:25:06.021Z</time>
      </trkpt>
      <trkpt lat="48.74605" lon="7.35104">
        <ele>195.3555598849</ele>
        <time>2021-07-08T15:25:11.824Z</time>
      </trkpt>
      <trkpt lat="48.74612" lon="7.35113">
        <ele>195.71234284221</ele>
        <time>2021-07-08T15:25:17.630Z</time>
      </trkpt>
      <trkpt lat="48.74605" lon="7.35118">
        <ele>195.99806705962</ele>
        <time>2021-07-08T15:25:23.439Z</time>
      </trkpt>
      <trkpt lat="48.746" lon="7.35126">
        <ele>196.30771600196</ele>
        <time>2021-07-08T15:25:29.250Z</time>
      </trkpt>
      <trkpt lat="48.74597" lon="7.35132">
        <ele>196.63604807325</ele>
        <time>2021-07-08T15:25:35.063Z</time>
      </trkpt>
      <trkpt lat="48.74596" lon="7.35135">
        <ele>196.97850069494</ele>
        <time>2021-07-08T15:25:40.877Z</time>
      </trkpt>
      <trkpt lat="48.74595" lon="7.35145">
        <ele>197.30708904331</ele>
        <time>2021-07-08T15:25:46.693Z</time>
      </trkpt>
      <trkpt lat="48.74595" lon="7.35154">
        <ele>197.63473980824</ele>
        <time>2021-07-08T15:25:52.511Z</time>
      </trkpt>
      <trkpt lat="48.74597" lon="7.35165">
        <ele>197.96850350513</ele>
        <time>2021-07-08T15:25:58.331Z</time>
      </trkpt>
      <trkpt lat="48.746" lon="7.35181">
        <ele>198.28067491611</ele>
        <time>2021-07-08T15:26:04.155Z</time>
      </trkpt>
      <trkpt lat="48.74604" lon="7.35189">
        <ele>198.58230816354</ele>
        <time>2021-07-08T15:26:09.981Z</time>
      </trkpt>
      <trkpt lat="48.74607" lon="7.35198">
        <ele>198.86359643713</ele>
        <time>2021-07-08T15:26:15.810Z</time>
      </trkpt>
      <trkpt lat="48.7461" lon="7.35204">
        <ele>199.1188410758</ele>
        <time>2021-07-08T15:26:21.640Z</time>
      </trkpt>
      <trkpt lat="48.74612" lon="7.35221">
        <ele>199.32765786079</ele>
        <time>2021-07-08T15:26:27.474Z</time>
      </trkpt>
      <trkpt lat="48.74613" lon="7.35234">
        <ele>199.49770085219</ele>
        <time>2021-07-08T15:26:33.311Z</time>
      </trkpt>
      <trkpt lat="48.74614" lon="7.35241">
        <ele>199.63315402232</ele>
        <time>2021-07-08T15:26:39.149Z</time>
      </trkpt>
      <trkpt lat="48.74615" lon="7.35246">
        <ele>199.72606817194</ele>
        <time>2021-07-08T15:26:44.989Z</time>
      </trkpt>
      <trkpt lat="48.74615" lon="7.35247">
        <ele>199.76638396002</ele>
        <time>2021-07-08T15:26:50.829Z</time>
      </trkpt>
      <trkpt lat="48.74615" lon="7.35247">
        <ele>199.70801270317</ele>
        <time>2021-07-08T15:26:56.669Z</time>
      </trkpt>
      <trkpt lat="48.7462" lon="7.35268">
        <ele>199.62647244569</ele>
        <time>2021-07-08T15:27:02.514Z</time>
      </trkpt>
      <trkpt lat="48.7462" lon="7.35275">
        <ele>199.452264097</ele>
        <time>2021-07-08T15:27:08.360Z</time>
      </trkpt>
      <trkpt lat="48.74619" lon="7.3528">
        <ele>199.20778309556</ele>
        <time>2021-07-08T15:27:14.207Z</time>
      </trkpt>
      <trkpt lat="48.74618" lon="7.353">
        <ele>198.90913479701</ele>
        <time>2021-07-08T15:27:20.059Z</time>
      </trkpt>
      <trkpt lat="48.74614" lon="7.35319">
        <ele>198.52661149387</ele>
        <time>2021-07-08T15:27:25.915Z</time>
      </trkpt>
      <trkpt lat="48.74611" lon="7.35325">
        <ele>198.07605674143</ele>
        <time>2021-07-08T15:27:31.773Z</time>
      </trkpt>
      <trkpt lat="48.74607" lon="7.35329">
        <ele>197.55575848354</ele>
        <time>2021-07-08T15:27:37.633Z</time>
      </trkpt>
      <trkpt lat="48.74601" lon="7.3536">
        <ele>196.92389280019</ele>
        <time>2021-07-08T15:27:43.500Z</time>
      </trkpt>
      <trkpt lat="48.74574" lon="7.35479">
        <ele>196.18726354194</ele>
        <time>2021-07-08T15:27:49.394Z</time>
      </trkpt>
      <trkpt lat="48.74559" lon="7.35547">
        <ele>195.53683994728</ele>
        <time>2021-07-08T15:27:55.304Z</time>
      </trkpt>
      <trkpt lat="48.74559" lon="7.35548">
        <ele>194.85360723669</ele>
        <time>2021-07-08T15:28:01.214Z</time>
      </trkpt>
      <trkpt lat="48.74556" lon="7.3556">
        <ele>194.14356531041</ele>
        <time>2021-07-08T15:28:07.127Z</time>
      </trkpt>
      <trkpt lat="48.74554" lon="7.35561">
        <ele>193.36804554561</ele>
        <time>2021-07-08T15:28:13.041Z</time>
      </trkpt>
      <trkpt lat="48.74521" lon="7.35576">
        <ele>192.45275890165</ele>
        <time>2021-07-08T15:28:18.967Z</time>
      </trkpt>
      <trkpt lat="48.74501" lon="7.35586">
        <ele>191.58083435248</ele>
        <time>2021-07-08T15:28:24.900Z</time>
      </trkpt>
      <trkpt lat="48.74498" lon="7.35587">
        <ele>190.76950679926</ele>
        <time>2021-07-08T15:28:30.834Z</time>
      </trkpt>
      <trkpt lat="48.7448" lon="7.35596">
        <ele>189.90268184547</ele>
        <time>2021-07-08T15:28:36.774Z</time>
      </trkpt>
      <trkpt lat="48.74443" lon="7.35615">
        <ele>188.94672179563</ele>
        <time>2021-07-08T15:28:42.727Z</time>
      </trkpt>
      <trkpt lat="48.74436" lon="7.35619">
        <ele>188.18792100436</ele>
        <time>2021-07-08T15:28:48.682Z</time>
      </trkpt>
      <trkpt lat="48.74428" lon="7.35625">
        <ele>187.49174712121</ele>
        <time>2021-07-08T15:28:54.640Z</time>
      </trkpt>
      <trkpt lat="48.74406" lon="7.35647">
        <ele>186.80582774653</ele>
        <time>2021-07-08T15:29:00.607Z</time>
      </trkpt>
      <trkpt lat="48.74385" lon="7.35666">
        <ele>186.13295585897</ele>
        <time>2021-07-08T15:29:06.582Z</time>
      </trkpt>
      <trkpt lat="48.74372" lon="7.35679">
        <ele>185.5435360831</ele>
        <time>2021-07-08T15:29:12.563Z</time>
      </trkpt>
      <trkpt lat="48.74372" lon="7.35686">
        <ele>185.07518801658</ele>
        <time>2021-07-08T15:29:18.545Z</time>
      </trkpt>
      <trkpt lat="48.74368" lon="7.35864">
        <ele>184.82118394177</ele>
        <time>2021-07-08T15:29:24.566Z</time>
      </trkpt>
      <trkpt lat="48.7436" lon="7.35873">
        <ele>184.45637554822</ele>
        <time>2021-07-08T15:29:30.591Z</time>
      </trkpt>
      <trkpt lat="48.74357" lon="7.35876">
        <ele>184.12174245157</ele>
        <time>2021-07-08T15:29:36.617Z</time>
      </trkpt>
      <trkpt lat="48.74352" lon="7.35883">
        <ele>183.85074759516</ele>
        <time>2021-07-08T15:29:42.645Z</time>
      </trkpt>
      <trkpt lat="48.74341" lon="7.35898">
        <ele>183.65338299309</ele>
        <time>2021-07-08T15:29:48.678Z</time>
      </trkpt>
      <trkpt lat="48.74332" lon="7.35915">
        <ele>183.52568711011</ele>
        <time>2021-07-08T15:29:54.716Z</time>
      </trkpt>
      <trkpt lat="48.74325" lon="7.35927">
        <ele>183.41870110514</ele>
        <time>2021-07-08T15:30:00.757Z</time>
      </trkpt>
      <trkpt lat="48.74304" lon="7.35962">
        <ele>183.43337831648</ele>
        <time>2021-07-08T15:30:06.809Z</time>
      </trkpt>
      <trkpt lat="48.74286" lon="7.35992">
        <ele>183.55552486147</ele>
        <time>2021-07-08T15:30:12.870Z</time>
      </trkpt>
      <trkpt lat="48.74272" lon="7.36015">
        <ele>183.65068437457</ele>
        <time>2021-07-08T15:30:18.938Z</time>
      </trkpt>
      <trkpt lat="48.74229" lon="7.36089">
        <ele>183.93157132039</ele>
        <time>2021-07-08T15:30:25.027Z</time>
      </trkpt>
      <trkpt lat="48.74216" lon="7.36112">
        <ele>184.26892520494</ele>
        <time>2021-07-08T15:30:31.123Z</time>
      </trkpt>
      <trkpt lat="48.74212" lon="7.36118">
        <ele>184.77232193976</ele>
        <time>2021-07-08T15:30:37.221Z</time>
      </trkpt>
      <trkpt lat="48.74208" lon="7.36125">
        <ele>185.4435211337</ele>
        <time>2021-07-08T15:30:43.321Z</time>
      </trkpt>
      <trkpt lat="48.74205" lon="7.36131">
        <ele>186.29918747956</ele>
        <time>2021-07-08T15:30:49.423Z</time>
      </trkpt>
      <trkpt lat="48.74114" lon="7.35971">
        <ele>187.51321415774</ele>
        <time>2021-07-08T15:30:55.571Z</time>
      </trkpt>
      <trkpt lat="48.74098" lon="7.35988">
        <ele>188.92696392922</ele>
        <time>2021-07-08T15:31:01.726Z</time>
      </trkpt>
      <trkpt lat="48.74075" lon="7.35942">
        <ele>190.55911464469</ele>
        <time>2021-07-08T15:31:07.894Z</time>
      </trkpt>
      <trkpt lat="48.74069" lon="7.35908">
        <ele>192.50220929847</ele>
        <time>2021-07-08T15:31:14.069Z</time>
      </trkpt>
      <trkpt lat="48.74077" lon="7.35609">
        <ele>194.71044564606</ele>
        <time>2021-07-08T15:31:20.310Z</time>
      </trkpt>
      <trkpt lat="48.74038" lon="7.35506">
        <ele>197.8564351456</ele>
        <time>2021-07-08T15:31:26.578Z</time>
      </trkpt>
      <trkpt lat="48.74019" lon="7.35173">
        <ele>202.19997169125</ele>
        <time>2021-07-08T15:31:32.919Z</time>
      </trkpt>
      <trkpt lat="48.74007" lon="7.35112">
        <ele>206.37807116242</ele>
        <time>2021-07-08T15:31:39.274Z</time>
      </trkpt>
      <trkpt lat="48.73975" lon="7.35047">
        <ele>211.38767069204</ele>
        <time>2021-07-08T15:31:45.647Z</time>
      </trkpt>
      <trkpt lat="48.73936" lon="7.34995">
        <ele>216.99043323346</ele>
        <time>2021-07-08T15:31:52.038Z</time>
      </trkpt>
      <trkpt lat="48.73876" lon="7.34942">
        <ele>222.8824428636</ele>
        <time>2021-07-08T15:31:58.452Z</time>
      </trkpt>
      <trkpt lat="48.73846" lon="7.34921">
        <ele>229.32385655285</ele>
        <time>2021-07-08T15:32:04.877Z</time>
      </trkpt>
      <trkpt lat="48.73795" lon="7.34918">
        <ele>236.64575488269</ele>
        <time>2021-07-08T15:32:11.319Z</time>
      </trkpt>
      <trkpt lat="48.73543" lon="7.34849">
        <ele>245.91361897642</ele>
        <time>2021-07-08T15:32:17.846Z</time>
      </trkpt>
      <trkpt lat="48.73509" lon="7.34836">
        <ele>253.72357901895</ele>
        <time>2021-07-08T15:32:24.385Z</time>
      </trkpt>
      <trkpt lat="48.73385" lon="7.34825">
        <ele>262.73828414471</ele>
        <time>2021-07-08T15:32:30.965Z</time>
      </trkpt>
      <trkpt lat="48.73354" lon="7.34784">
        <ele>271.67110231478</ele>
        <time>2021-07-08T15:32:37.559Z</time>
      </trkpt>
      <trkpt lat="48.73348" lon="7.34802">
        <ele>281.21109519184</ele>
        <time>2021-07-08T15:32:44.158Z</time>
      </trkpt>
      <trkpt lat="48.7327" lon="7.3469">
        <ele>292.19787334925</ele>
        <time>2021-07-08T15:32:50.792Z</time>
      </trkpt>
      <trkpt lat="48.73184" lon="7.34614">
        <ele>303.58542330095</ele>
        <time>2021-07-08T15:32:57.460Z</time>
      </trkpt>
      <trkpt lat="48.73117" lon="7.34511">
        <ele>314.83255100569</ele>
        <time>2021-07-08T15:33:04.160Z</time>
      </trkpt>
      <trkpt lat="48.73033" lon="7.34434">
        <ele>325.81102558265</ele>
        <time>2021-07-08T15:33:10.892Z</time>
      </trkpt>
      <trkpt lat="48.72901" lon="7.34331">
        <ele>336.7446773955</ele>
        <time>2021-07-08T15:33:17.674Z</time>
      </trkpt>
      <trkpt lat="48.72872" lon="7.34336">
        <ele>346.17625355295</ele>
        <time>2021-07-08T15:33:24.466Z</time>
      </trkpt>
      <trkpt lat="48.72852" lon="7.34368">
        <ele>354.98551200089</ele>
        <time>2021-07-08T15:33:31.267Z</time>
      </trkpt>
      <trkpt lat="48.72805" lon="7.3437">
        <ele>364.29807313334</ele>
        <time>2021-07-08T15:33:38.084Z</time>
      </trkpt>
      <trkpt lat="48.72792" lon="7.34297">
        <ele>374.66120523003</ele>
        <time>2021-07-08T15:33:44.918Z</time>
      </trkpt>
      <trkpt lat="48.7274" lon="7.34144">
        <ele>384.64679556805</ele>
        <time>2021-07-08T15:33:51.790Z</time>
      </trkpt>
      <trkpt lat="48.72701" lon="7.34034">
        <ele>392.58629745714</ele>
        <time>2021-07-08T15:33:58.689Z</time>
      </trkpt>
      <trkpt lat="48.72685" lon="7.34004">
        <ele>398.94279070246</ele>
        <time>2021-07-08T15:34:05.597Z</time>
      </trkpt>
      <trkpt lat="48.72658" lon="7.33976">
        <ele>404.46897758809</ele>
        <time>2021-07-08T15:34:12.516Z</time>
      </trkpt>
      <trkpt lat="48.72651" lon="7.34065">
        <ele>408.65453332771</ele>
        <time>2021-07-08T15:34:19.454Z</time>
      </trkpt>
      <trkpt lat="48.72641" lon="7.34068">
        <ele>413.46953220798</ele>
        <time>2021-07-08T15:34:26.396Z</time>
      </trkpt>
      <trkpt lat="48.72596" lon="7.34035">
        <ele>418.57684948803</ele>
        <time>2021-07-08T15:34:33.355Z</time>
      </trkpt>
      <trkpt lat="48.7257" lon="7.33993">
        <ele>423.58644757997</ele>
        <time>2021-07-08T15:34:40.326Z</time>
      </trkpt>
      <trkpt lat="48.72518" lon="7.33927">
        <ele>427.69033547158</ele>
        <time>2021-07-08T15:34:47.320Z</time>
      </trkpt>
    </trkseg>
  </trk>
</gpx>